Wetterdaten: Donnerstag, 27.08.2020
Datum Zeit Temp. Aussen Temp. o. S. Temp +5cm Feuchte Auss Luftdruck Regen Sonnenschein Regendauer Solar Windben Empfang
27.08.2020 00:00 15,4 C 13,9 C 13,9 C 92 % 1018,1 hPa 0,0 l/m 0 min 0 min 0 W/m 0,0 km/h (0 Bft) 100,00 %
27.08.2020 00:02 15,4 C 13,9 C 13,9 C 92 % 1018,0 hPa 0,0 l/m 0 min 0 min 0 W/m 0,0 km/h (0 Bft) 12,50 %
27.08.2020 00:04 15,4 C 13,9 C 13,9 C 92 % 1018,1 hPa 0,0 l/m 0 min 0 min 0 W/m 0,0 km/h (0 Bft) 85,00 %
27.08.2020 00:08 15,4 C 13,9 C 13,9 C 92 % 1018,1 hPa 0,0 l/m 0 min 0 min 0 W/m 0,0 km/h (0 Bft) 100,00 %
27.08.2020 00:10 15,3 C 13,9 C 13,9 C 92 % 1018,1 hPa 0,0 l/m 0 min 0 min 0 W/m 3,2 km/h (1 Bft) 100,00 %
27.08.2020 00:12 15,3 C 13,9 C 13,9 C 92 % 1018,1 hPa 0,0 l/m 0 min 0 min 0 W/m 3,2 km/h (1 Bft) 100,00 %
27.08.2020 00:14 15,3 C 13,9 C 13,9 C 92 % 1018,1 hPa 0,0 l/m 0 min 0 min 0 W/m 3,2 km/h (1 Bft) 100,00 %
27.08.2020 00:16 15,3 C 13,9 C 13,9 C 92 % 1018,2 hPa 0,0 l/m 0 min 0 min 0 W/m 0,0 km/h (0 Bft) 97,87 %
27.08.2020 00:18 15,3 C 13,9 C 13,9 C 92 % 1018,2 hPa 0,0 l/m 0 min 0 min 0 W/m 0,0 km/h (0 Bft) 97,87 %
27.08.2020 00:20 15,2 C 13,9 C 13,9 C 92 % 1018,2 hPa 0,0 l/m 0 min 0 min 0 W/m 0,0 km/h (0 Bft) 100,00 %
27.08.2020 00:22 15,2 C 13,9 C 13,9 C 92 % 1018,2 hPa 0,0 l/m 0 min 0 min 0 W/m 9,7 km/h (2 Bft) 100,00 %
27.08.2020 00:24 15,2 C 13,9 C 13,9 C 92 % 1018,2 hPa 0,0 l/m 0 min 0 min 0 W/m 3,2 km/h (1 Bft) 100,00 %
27.08.2020 00:26 15,2 C 13,9 C 13,9 C 92 % 1018,2 hPa 0,0 l/m 0 min 0 min 0 W/m 6,4 km/h (2 Bft) 100,00 %
27.08.2020 00:28 15,2 C 13,9 C 13,9 C 92 % 1018,2 hPa 0,0 l/m 0 min 0 min 0 W/m 3,2 km/h (1 Bft) 100,00 %
27.08.2020 00:30 15,2 C 13,9 C 13,9 C 93 % 1018,2 hPa 0,0 l/m 0 min 0 min 0 W/m 0,0 km/h (0 Bft) 100,00 %
27.08.2020 00:32 15,1 C 13,9 C 13,9 C 93 % 1018,2 hPa 0,0 l/m 0 min 0 min 0 W/m 0,0 km/h (0 Bft) 100,00 %
27.08.2020 00:34 15,1 C 13,9 C 13,9 C 93 % 1018,2 hPa 0,0 l/m 0 min 0 min 0 W/m 0,0 km/h (0 Bft) 100,00 %
27.08.2020 00:36 15,1 C 13,9 C 13,9 C 93 % 1018,2 hPa 0,0 l/m 0 min 0 min 0 W/m 3,2 km/h (1 Bft) 100,00 %
27.08.2020 00:38 15,1 C 13,9 C 13,9 C 93 % 1018,2 hPa 0,0 l/m 0 min 0 min 0 W/m 0,0 km/h (0 Bft) 97,87 %
27.08.2020 00:40 15,1 C 13,9 C 13,9 C 93 % 1018,2 hPa 0,0 l/m 0 min 0 min 0 W/m 0,0 km/h (0 Bft) 97,87 %
27.08.2020 00:42 15,1 C 13,9 C 13,3 C 93 % 1018,2 hPa 0,0 l/m 0 min 0 min 0 W/m 3,2 km/h (1 Bft) 100,00 %
27.08.2020 00:44 15,0 C 13,9 C 13,3 C 93 % 1018,2 hPa 0,0 l/m 0 min 0 min 0 W/m 0,0 km/h (0 Bft) 97,87 %
27.08.2020 00:46 15,0 C 13,9 C 13,3 C 93 % 1018,2 hPa 0,0 l/m 0 min 0 min 0 W/m 6,4 km/h (2 Bft) 100,00 %
27.08.2020 00:48 15,0 C 13,9 C 13,3 C 93 % 1018,2 hPa 0,0 l/m 0 min 0 min 0 W/m 0,0 km/h (0 Bft) 100,00 %
27.08.2020 00:50 14,9 C 13,3 C 13,3 C 93 % 1018,2 hPa 0,0 l/m 0 min 0 min 0 W/m 3,2 km/h (1 Bft) 97,87 %
27.08.2020 00:52 14,9 C 13,3 C 13,3 C 93 % 1018,2 hPa 0,0 l/m 0 min 0 min 0 W/m 0,0 km/h (0 Bft) 100,00 %
27.08.2020 00:54 14,9 C 13,3 C 13,3 C 93 % 1018,2 hPa 0,0 l/m 0 min 0 min 0 W/m 0,0 km/h (0 Bft) 100,00 %
27.08.2020 00:56 14,9 C 13,3 C 13,3 C 93 % 1018,2 hPa 0,0 l/m 0 min 0 min 0 W/m 0,0 km/h (0 Bft) 100,00 %
27.08.2020 00:58 14,9 C 13,3 C 13,3 C 93 % 1018,2 hPa 0,0 l/m 0 min 0 min 0 W/m 0,0 km/h (0 Bft) 97,87 %
27.08.2020 01:00 14,9 C 13,3 C 13,3 C 93 % 1018,2 hPa 0,0 l/m 0 min 0 min 0 W/m 0,0 km/h (0 Bft) 97,87 %
27.08.2020 01:02 14,8 C 13,3 C 13,3 C 93 % 1018,1 hPa 0,0 l/m 0 min 0 min 0 W/m 0,0 km/h (0 Bft) 93,62 %
27.08.2020 01:04 14,8 C 13,3 C 13,3 C 93 % 1018,2 hPa 0,0 l/m 0 min 0 min 0 W/m 0,0 km/h (0 Bft) 97,83 %
27.08.2020 01:06 14,8 C 13,3 C 13,3 C 93 % 1018,1 hPa 0,0 l/m 0 min 0 min 0 W/m 0,0 km/h (0 Bft) 97,87 %
27.08.2020 01:08 14,8 C 13,3 C 13,3 C 93 % 1018,1 hPa 0,0 l/m 0 min 0 min 0 W/m 0,0 km/h (0 Bft) 97,87 %
27.08.2020 01:10 14,8 C 13,3 C 13,3 C 93 % 1018,2 hPa 0,0 l/m 0 min 0 min 0 W/m 0,0 km/h (0 Bft) 97,87 %
27.08.2020 01:12 14,8 C 13,3 C 12,8 C 93 % 1018,2 hPa 0,0 l/m 0 min 0 min 0 W/m 0,0 km/h (0 Bft) 93,62 %
27.08.2020 01:14 14,7 C 13,3 C 12,8 C 93 % 1018,2 hPa 0,0 l/m 0 min 0 min 0 W/m 3,2 km/h (1 Bft) 97,87 %
27.08.2020 01:16 14,7 C 12,8 C 12,8 C 93 % 1018,2 hPa 0,0 l/m 0 min 0 min 0 W/m 0,0 km/h (0 Bft) 97,83 %
27.08.2020 01:18 14,7 C 12,8 C 12,8 C 93 % 1018,2 hPa 0,0 l/m 0 min 0 min 0 W/m 0,0 km/h (0 Bft) 97,87 %
27.08.2020 01:20 14,7 C 12,8 C 12,8 C 93 % 1018,2 hPa 0,0 l/m 0 min 0 min 0 W/m 3,2 km/h (1 Bft) 97,87 %
27.08.2020 01:22 14,6 C 12,8 C 12,8 C 93 % 1018,2 hPa 0,0 l/m 0 min 0 min 0 W/m 0,0 km/h (0 Bft) 97,87 %
27.08.2020 01:24 14,6 C 13,3 C 12,8 C 93 % 1018,2 hPa 0,0 l/m 0 min 0 min 0 W/m 0,0 km/h (0 Bft) 97,87 %
27.08.2020 01:26 14,6 C 13,3 C 12,8 C 93 % 1018,2 hPa 0,0 l/m 0 min 0 min 0 W/m 0,0 km/h (0 Bft) 95,65 %
27.08.2020 01:28 14,6 C 13,3 C 12,8 C 93 % 1018,1 hPa 0,0 l/m 0 min 0 min 0 W/m 0,0 km/h (0 Bft) 97,87 %
27.08.2020 01:30 14,6 C 13,3 C 12,8 C 93 % 1018,2 hPa 0,0 l/m 0 min 0 min 0 W/m 3,2 km/h (1 Bft) 97,87 %
27.08.2020 01:32 14,6 C 13,3 C 12,8 C 93 % 1018,2 hPa 0,0 l/m 0 min 0 min 0 W/m 0,0 km/h (0 Bft) 95,74 %
27.08.2020 01:34 14,6 C 13,3 C 12,8 C 93 % 1018,2 hPa 0,0 l/m 0 min 0 min 0 W/m 0,0 km/h (0 Bft) 95,74 %
27.08.2020 01:36 14,5 C 13,3 C 12,8 C 93 % 1018,2 hPa 0,0 l/m 0 min 0 min 0 W/m 0,0 km/h (0 Bft) 97,87 %
27.08.2020 01:38 14,5 C 13,3 C 12,8 C 93 % 1018,1 hPa 0,0 l/m 0 min 0 min 0 W/m 6,4 km/h (2 Bft) 95,65 %
27.08.2020 01:40 14,4 C 13,3 C 12,8 C 93 % 1018,1 hPa 0,0 l/m 0 min 0 min 0 W/m 0,0 km/h (0 Bft) 100,00 %
27.08.2020 01:42 14,4 C 13,3 C 12,8 C 93 % 1018,1 hPa 0,0 l/m 0 min 0 min 0 W/m 0,0 km/h (0 Bft) 100,00 %
27.08.2020 01:44 14,4 C 12,8 C 12,8 C 93 % 1018,1 hPa 0,0 l/m 0 min 0 min 0 W/m 0,0 km/h (0 Bft) 100,00 %
27.08.2020 01:46 14,4 C 12,8 C 12,8 C 94 % 1018,1 hPa 0,0 l/m 0 min 0 min 0 W/m 0,0 km/h (0 Bft) 100,00 %
27.08.2020 01:48 14,4 C 12,8 C 12,8 C 94 % 1018,1 hPa 0,0 l/m 0 min 0 min 0 W/m 0,0 km/h (0 Bft) 100,00 %
27.08.2020 01:50 14,3 C 12,8 C 12,8 C 94 % 1018,2 hPa 0,0 l/m 0 min 0 min 0 W/m 0,0 km/h (0 Bft) 100,00 %
27.08.2020 01:52 14,3 C 12,8 C 12,2 C 94 % 1018,2 hPa 0,0 l/m 0 min 0 min 0 W/m 0,0 km/h (0 Bft) 100,00 %
27.08.2020 01:54 14,3 C 12,8 C 12,2 C 94 % 1018,2 hPa 0,0 l/m 0 min 0 min 0 W/m 0,0 km/h (0 Bft) 93,62 %
27.08.2020 01:56 14,3 C 12,8 C 12,2 C 94 % 1018,2 hPa 0,0 l/m 0 min 0 min 0 W/m 0,0 km/h (0 Bft) 93,62 %
27.08.2020 01:58 14,3 C 12,2 C 12,2 C 94 % 1018,2 hPa 0,0 l/m 0 min 0 min 0 W/m 0,0 km/h (0 Bft) 97,87 %
27.08.2020 02:00 14,3 C 12,2 C 12,2 C 94 % 1018,1 hPa 0,0 l/m 0 min 0 min 0 W/m 0,0 km/h (0 Bft) 97,87 %
27.08.2020 02:02 14,3 C 12,2 C 12,2 C 94 % 1018,1 hPa 0,0 l/m 0 min 0 min 0 W/m 0,0 km/h (0 Bft) 95,74 %
27.08.2020 02:04 14,3 C 12,2 C 12,2 C 94 % 1018,2 hPa 0,0 l/m 0 min 0 min 0 W/m 3,2 km/h (1 Bft) 98,04 %
27.08.2020 02:06 14,3 C 12,2 C 12,2 C 94 % 1018,2 hPa 0,0 l/m 0 min 0 min 0 W/m 0,0 km/h (0 Bft) 95,74 %
27.08.2020 02:08 14,2 C 12,2 C 12,2 C 94 % 1018,1 hPa 0,0 l/m 0 min 0 min 0 W/m 0,0 km/h (0 Bft) 93,62 %
27.08.2020 02:10 14,2 C 12,2 C 11,7 C 93 % 1018,2 hPa 0,0 l/m 0 min 0 min 0 W/m 0,0 km/h (0 Bft) 95,74 %
27.08.2020 02:12 14,2 C 12,2 C 11,7 C 93 % 1018,2 hPa 0,0 l/m 0 min 0 min 0 W/m 0,0 km/h (0 Bft) 95,65 %
27.08.2020 02:14 14,1 C 12,2 C 11,7 C 93 % 1018,2 hPa 0,0 l/m 0 min 0 min 0 W/m 0,0 km/h (0 Bft) 97,87 %
27.08.2020 02:16 14,1 C 12,2 C 11,7 C 93 % 1018,2 hPa 0,0 l/m 0 min 0 min 0 W/m 0,0 km/h (0 Bft) 91,49 %
27.08.2020 02:18 14,1 C 12,2 C 11,7 C 93 % 1018,2 hPa 0,0 l/m 0 min 0 min 0 W/m 0,0 km/h (0 Bft) 95,74 %
27.08.2020 02:20 14,0 C 11,7 C 11,7 C 93 % 1018,3 hPa 0,0 l/m 0 min 0 min 0 W/m 0,0 km/h (0 Bft) 95,74 %
27.08.2020 02:22 13,9 C 12,2 C 11,7 C 93 % 1018,2 hPa 0,0 l/m 0 min 0 min 0 W/m 0,0 km/h (0 Bft) 91,49 %
27.08.2020 02:24 13,9 C 12,2 C 11,7 C 93 % 1018,3 hPa 0,0 l/m 0 min 0 min 0 W/m 0,0 km/h (0 Bft) 95,65 %
27.08.2020 02:26 13,9 C 11,7 C 11,7 C 93 % 1018,3 hPa 0,0 l/m 0 min 0 min 0 W/m 0,0 km/h (0 Bft) 95,74 %
27.08.2020 02:28 13,8 C 11,7 C 11,7 C 93 % 1018,3 hPa 0,0 l/m 0 min 0 min 0 W/m 0,0 km/h (0 Bft) 95,74 %
27.08.2020 02:30 13,8 C 11,7 C 11,7 C 93 % 1018,3 hPa 0,0 l/m 0 min 0 min 0 W/m 0,0 km/h (0 Bft) 95,74 %
27.08.2020 02:32 13,8 C 12,2 C 11,7 C 93 % 1018,3 hPa 0,0 l/m 0 min 0 min 0 W/m 0,0 km/h (0 Bft) 93,62 %
27.08.2020 02:34 13,8 C 12,2 C 11,7 C 93 % 1018,3 hPa 0,0 l/m 0 min 0 min 0 W/m 0,0 km/h (0 Bft) 93,62 %
27.08.2020 02:36 13,7 C 12,2 C 11,7 C 93 % 1018,3 hPa 0,0 l/m 0 min 0 min 0 W/m 0,0 km/h (0 Bft) 95,65 %
27.08.2020 02:38 13,7 C 12,2 C 11,7 C 93 % 1018,3 hPa 0,0 l/m 0 min 0 min 0 W/m 0,0 km/h (0 Bft) 95,74 %
27.08.2020 02:40 13,7 C 12,2 C 11,7 C 93 % 1018,3 hPa 0,0 l/m 0 min 0 min 0 W/m 0,0 km/h (0 Bft) 97,87 %
27.08.2020 02:42 13,7 C 12,2 C 11,7 C 93 % 1018,3 hPa 0,0 l/m 0 min 0 min 0 W/m 0,0 km/h (0 Bft) 93,62 %
27.08.2020 02:44 13,6 C 12,2 C 11,7 C 93 % 1018,3 hPa 0,0 l/m 0 min 0 min 0 W/m 0,0 km/h (0 Bft) 95,74 %
27.08.2020 02:46 13,6 C 12,2 C 11,7 C 93 % 1018,3 hPa 0,0 l/m 0 min 0 min 0 W/m 0,0 km/h (0 Bft) 97,87 %
27.08.2020 02:48 13,6 C 12,2 C 11,7 C 93 % 1018,3 hPa 0,0 l/m 0 min 0 min 0 W/m 0,0 km/h (0 Bft) 97,83 %
27.08.2020 02:50 13,6 C 12,2 C 11,7 C 93 % 1018,2 hPa 0,0 l/m 0 min 0 min 0 W/m 0,0 km/h (0 Bft) 97,87 %
27.08.2020 02:52 13,6 C 12,2 C 11,7 C 93 % 1018,2 hPa 0,0 l/m 0 min 0 min 0 W/m 0,0 km/h (0 Bft) 95,74 %
27.08.2020 02:54 13,6 C 12,2 C 11,7 C 93 % 1018,2 hPa 0,0 l/m 0 min 0 min 0 W/m 0,0 km/h (0 Bft) 97,87 %
27.08.2020 02:56 13,6 C 12,2 C 12,2 C 94 % 1018,2 hPa 0,0 l/m 0 min 0 min 0 W/m 0,0 km/h (0 Bft) 97,87 %
27.08.2020 02:58 13,5 C 12,8 C 12,2 C 94 % 1018,2 hPa 0,0 l/m 0 min 0 min 0 W/m 0,0 km/h (0 Bft) 97,83 %
27.08.2020 03:00 13,5 C 12,8 C 12,2 C 94 % 1018,2 hPa 0,0 l/m 0 min 0 min 0 W/m 0,0 km/h (0 Bft) 97,87 %
27.08.2020 03:02 13,5 C 12,8 C 12,2 C 94 % 1018,2 hPa 0,0 l/m 0 min 0 min 0 W/m 0,0 km/h (0 Bft) 95,74 %
27.08.2020 03:04 13,5 C 12,8 C 12,2 C 94 % 1018,2 hPa 0,0 l/m 0 min 0 min 0 W/m 0,0 km/h (0 Bft) 97,87 %
27.08.2020 03:06 13,5 C 12,8 C 12,2 C 94 % 1018,2 hPa 0,0 l/m 0 min 0 min 0 W/m 0,0 km/h (0 Bft) 95,74 %
27.08.2020 03:08 13,5 C 12,8 C 12,2 C 94 % 1018,2 hPa 0,0 l/m 0 min 0 min 0 W/m 0,0 km/h (0 Bft) 95,74 %
27.08.2020 03:10 13,5 C 12,8 C 12,2 C 94 % 1018,2 hPa 0,0 l/m 0 min 0 min 0 W/m 0,0 km/h (0 Bft) 97,83 %
27.08.2020 03:12 13,5 C 12,8 C 12,2 C 94 % 1018,2 hPa 0,0 l/m 0 min 0 min 0 W/m 0,0 km/h (0 Bft) 95,74 %
27.08.2020 03:14 13,5 C 12,8 C 12,2 C 94 % 1018,2 hPa 0,0 l/m 0 min 0 min 0 W/m 0,0 km/h (0 Bft) 97,87 %
27.08.2020 03:16 13,5 C 12,8 C 12,2 C 94 % 1018,2 hPa 0,0 l/m 0 min 0 min 0 W/m 0,0 km/h (0 Bft) 97,87 %
27.08.2020 03:18 13,5 C 12,2 C 12,2 C 94 % 1018,2 hPa 0,0 l/m 0 min 0 min 0 W/m 0,0 km/h (0 Bft) 100,00 %
27.08.2020 03:20 13,5 C 12,2 C 12,2 C 94 % 1018,2 hPa 0,0 l/m 0 min 0 min 0 W/m 0,0 km/h (0 Bft) 100,00 %
27.08.2020 03:22 13,5 C 12,2 C 12,2 C 94 % 1018,1 hPa 0,0 l/m 0 min 0 min 0 W/m 0,0 km/h (0 Bft) 100,00 %
27.08.2020 03:24 13,5 C 12,2 C 12,2 C 94 % 1018,2 hPa 0,0 l/m 0 min 0 min 0 W/m 0,0 km/h (0 Bft) 97,87 %
27.08.2020 03:26 13,5 C 12,8 C 12,2 C 94 % 1018,2 hPa 0,0 l/m 0 min 0 min 0 W/m 0,0 km/h (0 Bft) 97,87 %
27.08.2020 03:28 13,5 C 12,8 C 12,2 C 94 % 1018,2 hPa 0,0 l/m 0 min 0 min 0 W/m 0,0 km/h (0 Bft) 97,87 %
27.08.2020 03:30 13,5 C 12,8 C 12,2 C 94 % 1018,2 hPa 0,0 l/m 0 min 0 min 0 W/m 0,0 km/h (0 Bft) 97,87 %
27.08.2020 03:32 13,6 C 12,8 C 12,2 C 94 % 1018,2 hPa 0,0 l/m 0 min 0 min 0 W/m 0,0 km/h (0 Bft) 93,75 %
27.08.2020 03:34 13,6 C 12,8 C 12,2 C 94 % 1018,3 hPa 0,0 l/m 0 min 0 min 0 W/m 0,0 km/h (0 Bft) 95,65 %
27.08.2020 03:36 13,6 C 12,8 C 12,2 C 95 % 1018,3 hPa 0,0 l/m 0 min 0 min 0 W/m 0,0 km/h (0 Bft) 97,87 %
27.08.2020 03:38 13,6 C 12,8 C 12,2 C 95 % 1018,3 hPa 0,0 l/m 0 min 0 min 0 W/m 0,0 km/h (0 Bft) 97,87 %
27.08.2020 03:40 13,6 C 12,8 C 12,2 C 95 % 1018,3 hPa 0,0 l/m 0 min 0 min 0 W/m 0,0 km/h (0 Bft) 97,87 %
27.08.2020 03:42 13,6 C 12,8 C 12,2 C 95 % 1018,3 hPa 0,0 l/m 0 min 0 min 0 W/m 0,0 km/h (0 Bft) 97,87 %
27.08.2020 03:44 13,6 C 12,8 C 12,2 C 95 % 1018,3 hPa 0,0 l/m 0 min 0 min 0 W/m 0,0 km/h (0 Bft) 95,65 %
27.08.2020 03:46 13,6 C 12,8 C 12,2 C 95 % 1018,3 hPa 0,0 l/m 0 min 0 min 0 W/m 0,0 km/h (0 Bft) 97,87 %
27.08.2020 03:48 13,6 C 12,8 C 12,2 C 95 % 1018,3 hPa 0,0 l/m 0 min 0 min 0 W/m 0,0 km/h (0 Bft) 97,87 %
27.08.2020 03:50 13,6 C 12,8 C 12,2 C 95 % 1018,2 hPa 0,0 l/m 0 min 0 min 0 W/m 0,0 km/h (0 Bft) 97,87 %
27.08.2020 03:52 13,6 C 12,8 C 12,2 C 95 % 1018,2 hPa 0,0 l/m 0 min 0 min 0 W/m 0,0 km/h (0 Bft) 97,87 %
27.08.2020 03:54 13,6 C 12,8 C 12,2 C 95 % 1018,2 hPa 0,0 l/m 0 min 0 min 0 W/m 0,0 km/h (0 Bft) 97,87 %
27.08.2020 03:56 13,6 C 12,8 C 12,2 C 95 % 1018,2 hPa 0,0 l/m 0 min 0 min 0 W/m 0,0 km/h (0 Bft) 97,92 %
27.08.2020 03:58 13,6 C 12,8 C 12,2 C 95 % 1018,2 hPa 0,0 l/m 0 min 0 min 0 W/m 0,0 km/h (0 Bft) 97,87 %
27.08.2020 04:00 13,6 C 12,8 C 12,2 C 95 % 1018,2 hPa 0,0 l/m 0 min 0 min 0 W/m 0,0 km/h (0 Bft) 97,87 %
27.08.2020 04:02 13,6 C 12,8 C 12,2 C 95 % 1018,1 hPa 0,0 l/m 0 min 0 min 0 W/m 0,0 km/h (0 Bft) 100,00 %
27.08.2020 04:04 13,6 C 12,8 C 12,2 C 95 % 1018,1 hPa 0,0 l/m 0 min 0 min 0 W/m 0,0 km/h (0 Bft) 97,83 %
27.08.2020 04:06 13,6 C 12,8 C 12,2 C 95 % 1018,1 hPa 0,0 l/m 0 min 0 min 0 W/m 0,0 km/h (0 Bft) 97,87 %
27.08.2020 04:08 13,6 C 12,8 C 12,2 C 95 % 1018,0 hPa 0,0 l/m 0 min 0 min 0 W/m 0,0 km/h (0 Bft) 97,87 %
27.08.2020 04:10 13,6 C 12,8 C 12,2 C 95 % 1018,0 hPa 0,0 l/m 0 min 0 min 0 W/m 0,0 km/h (0 Bft) 100,00 %
27.08.2020 04:12 13,6 C 12,8 C 12,2 C 95 % 1017,9 hPa 0,0 l/m 0 min 0 min 0 W/m 0,0 km/h (0 Bft) 100,00 %
27.08.2020 04:14 13,6 C 12,8 C 12,2 C 95 % 1017,9 hPa 0,0 l/m 0 min 0 min 0 W/m 0,0 km/h (0 Bft) 97,83 %
27.08.2020 04:16 13,6 C 12,8 C 12,2 C 95 % 1017,9 hPa 0,0 l/m 0 min 0 min 0 W/m 0,0 km/h (0 Bft) 100,00 %
27.08.2020 04:18 13,6 C 12,8 C 12,2 C 95 % 1017,9 hPa 0,0 l/m 0 min 0 min 0 W/m 0,0 km/h (0 Bft) 100,00 %
27.08.2020 04:20 13,6 C 12,2 C 12,2 C 95 % 1017,9 hPa 0,0 l/m 0 min 0 min 0 W/m 0,0 km/h (0 Bft) 100,00 %
27.08.2020 04:22 13,6 C 12,2 C 12,2 C 95 % 1017,9 hPa 0,0 l/m 0 min 0 min 0 W/m 0,0 km/h (0 Bft) 100,00 %
27.08.2020 04:24 13,6 C 12,2 C 12,2 C 95 % 1017,9 hPa 0,0 l/m 0 min 0 min 0 W/m 0,0 km/h (0 Bft) 100,00 %
27.08.2020 04:26 13,6 C 12,2 C 12,2 C 95 % 1018,0 hPa 0,0 l/m 0 min 0 min 0 W/m 0,0 km/h (0 Bft) 97,87 %
27.08.2020 04:28 13,6 C 12,2 C 12,2 C 95 % 1017,9 hPa 0,0 l/m 0 min 0 min 0 W/m 0,0 km/h (0 Bft) 100,00 %
27.08.2020 04:30 13,6 C 12,2 C 12,2 C 95 % 1017,9 hPa 0,0 l/m 0 min 0 min 0 W/m 0,0 km/h (0 Bft) 100,00 %
27.08.2020 04:32 13,6 C 12,2 C 12,2 C 95 % 1017,9 hPa 0,0 l/m 0 min 0 min 0 W/m 0,0 km/h (0 Bft) 100,00 %
27.08.2020 04:34 13,6 C 12,2 C 12,2 C 95 % 1018,0 hPa 0,0 l/m 0 min 0 min 0 W/m 0,0 km/h (0 Bft) 100,00 %
27.08.2020 04:36 13,6 C 12,2 C 12,2 C 95 % 1018,0 hPa 0,0 l/m 0 min 0 min 0 W/m 0,0 km/h (0 Bft) 100,00 %
27.08.2020 04:38 13,6 C 12,8 C 12,2 C 95 % 1018,0 hPa 0,0 l/m 0 min 0 min 0 W/m 0,0 km/h (0 Bft) 100,00 %
27.08.2020 04:40 13,6 C 12,8 C 12,2 C 95 % 1018,1 hPa 0,0 l/m 0 min 0 min 0 W/m 0,0 km/h (0 Bft) 100,00 %
27.08.2020 04:42 13,6 C 12,8 C 12,2 C 95 % 1018,0 hPa 0,0 l/m 0 min 0 min 0 W/m 0,0 km/h (0 Bft) 100,00 %
27.08.2020 04:44 13,6 C 12,8 C 12,2 C 96 % 1018,0 hPa 0,0 l/m 0 min 0 min 0 W/m 0,0 km/h (0 Bft) 97,87 %
27.08.2020 04:46 13,6 C 12,8 C 12,2 C 96 % 1017,9 hPa 0,0 l/m 0 min 0 min 0 W/m 0,0 km/h (0 Bft) 100,00 %
27.08.2020 04:48 13,6 C 12,8 C 12,2 C 96 % 1017,9 hPa 0,0 l/m 0 min 0 min 0 W/m 0,0 km/h (0 Bft) 97,87 %
27.08.2020 04:50 13,6 C 12,8 C 12,2 C 96 % 1017,9 hPa 0,0 l/m 0 min 0 min 0 W/m 0,0 km/h (0 Bft) 97,83 %
27.08.2020 04:52 13,6 C 12,8 C 12,2 C 96 % 1017,9 hPa 0,0 l/m 0 min 0 min 0 W/m 0,0 km/h (0 Bft) 97,87 %
27.08.2020 04:54 13,6 C 12,8 C 12,2 C 96 % 1018,0 hPa 0,0 l/m 0 min 0 min 0 W/m 0,0 km/h (0 Bft) 95,74 %
27.08.2020 04:56 13,6 C 12,8 C 12,2 C 96 % 1017,9 hPa 0,0 l/m 0 min 0 min 0 W/m 0,0 km/h (0 Bft) 95,74 %
27.08.2020 04:58 13,6 C 12,8 C 12,2 C 96 % 1017,9 hPa 0,0 l/m 0 min 0 min 0 W/m 0,0 km/h (0 Bft) 97,87 %
27.08.2020 05:00 13,6 C 12,8 C 12,2 C 96 % 1017,9 hPa 0,0 l/m 0 min 0 min 0 W/m 0,0 km/h (0 Bft) 95,74 %
27.08.2020 05:02 13,6 C 12,8 C 12,2 C 96 % 1017,9 hPa 0,0 l/m 0 min 0 min 0 W/m 0,0 km/h (0 Bft) 97,83 %
27.08.2020 05:04 13,6 C 12,2 C 12,2 C 96 % 1017,8 hPa 0,0 l/m 0 min 0 min 0 W/m 0,0 km/h (0 Bft) 97,87 %
27.08.2020 05:06 13,6 C 12,2 C 12,2 C 96 % 1017,7 hPa 0,0 l/m 0 min 0 min 0 W/m 0,0 km/h (0 Bft) 97,87 %
27.08.2020 05:08 13,6 C 12,2 C 12,2 C 96 % 1017,7 hPa 0,0 l/m 0 min 0 min 0 W/m 0,0 km/h (0 Bft) 95,74 %
27.08.2020 05:10 13,6 C 12,8 C 12,2 C 96 % 1017,7 hPa 0,0 l/m 0 min 0 min 0 W/m 0,0 km/h (0 Bft) 97,87 %
27.08.2020 05:12 13,6 C 12,8 C 12,2 C 96 % 1017,7 hPa 0,0 l/m 0 min 0 min 0 W/m 0,0 km/h (0 Bft) 97,87 %
27.08.2020 05:14 13,6 C 12,8 C 12,2 C 96 % 1017,7 hPa 0,0 l/m 0 min 0 min 0 W/m 0,0 km/h (0 Bft) 95,65 %
27.08.2020 05:16 13,6 C 12,8 C 12,2 C 96 % 1017,7 hPa 0,0 l/m 0 min 0 min 0 W/m 0,0 km/h (0 Bft) 97,87 %
27.08.2020 05:18 13,6 C 12,8 C 12,2 C 96 % 1017,6 hPa 0,0 l/m 0 min 0 min 0 W/m 0,0 km/h (0 Bft) 97,87 %
27.08.2020 05:20 13,6 C 12,8 C 12,2 C 96 % 1017,7 hPa 0,0 l/m 0 min 0 min 0 W/m 0,0 km/h (0 Bft) 97,87 %
27.08.2020 05:22 13,6 C 12,8 C 12,2 C 96 % 1017,7 hPa 0,0 l/m 0 min 0 min 0 W/m 0,0 km/h (0 Bft) 97,87 %
27.08.2020 05:24 13,6 C 12,8 C 12,2 C 96 % 1017,7 hPa 0,0 l/m 0 min 0 min 0 W/m 0,0 km/h (0 Bft) 95,74 %
27.08.2020 05:26 13,6 C 12,8 C 12,2 C 96 % 1017,8 hPa 0,0 l/m 0 min 0 min 0 W/m 0,0 km/h (0 Bft) 97,83 %
27.08.2020 05:28 13,6 C 12,8 C 12,2 C 96 % 1017,8 hPa 0,0 l/m 0 min 0 min 0 W/m 0,0 km/h (0 Bft) 95,74 %
27.08.2020 05:30 13,6 C 12,8 C 12,2 C 96 % 1017,7 hPa 0,0 l/m 0 min 0 min 0 W/m 0,0 km/h (0 Bft) 95,74 %
27.08.2020 05:32 13,6 C 12,8 C 12,2 C 96 % 1017,7 hPa 0,0 l/m 0 min 0 min 0 W/m 0,0 km/h (0 Bft) 95,74 %
27.08.2020 05:34 13,6 C 12,8 C 12,2 C 96 % 1017,7 hPa 0,0 l/m 0 min 0 min 0 W/m 0,0 km/h (0 Bft) 100,00 %
27.08.2020 05:36 13,6 C 12,8 C 12,8 C 96 % 1017,7 hPa 0,0 l/m 0 min 0 min 0 W/m 0,0 km/h (0 Bft) 100,00 %
27.08.2020 05:38 13,6 C 12,8 C 12,8 C 96 % 1017,7 hPa 0,0 l/m 0 min 0 min 0 W/m 0,0 km/h (0 Bft) 100,00 %
27.08.2020 05:40 13,6 C 12,8 C 12,8 C 96 % 1017,6 hPa 0,0 l/m 0 min 0 min 0 W/m 0,0 km/h (0 Bft) 100,00 %
27.08.2020 05:42 13,6 C 12,8 C 12,8 C 96 % 1017,6 hPa 0,0 l/m 0 min 0 min 0 W/m 0,0 km/h (0 Bft) 100,00 %
27.08.2020 05:44 13,6 C 12,8 C 12,8 C 96 % 1017,6 hPa 0,0 l/m 0 min 0 min 0 W/m 0,0 km/h (0 Bft) 97,87 %
27.08.2020 05:46 13,7 C 13,3 C 12,8 C 96 % 1017,6 hPa 0,0 l/m 0 min 0 min 0 W/m 0,0 km/h (0 Bft) 100,00 %
27.08.2020 05:48 13,7 C 13,3 C 12,8 C 96 % 1017,6 hPa 0,0 l/m 0 min 0 min 0 W/m 0,0 km/h (0 Bft) 100,00 %
27.08.2020 05:50 13,7 C 13,3 C 12,8 C 96 % 1017,6 hPa 0,0 l/m 0 min 0 min 0 W/m 0,0 km/h (0 Bft) 97,87 %
27.08.2020 05:52 13,7 C 12,8 C 12,8 C 96 % 1017,6 hPa 0,0 l/m 0 min 0 min 0 W/m 0,0 km/h (0 Bft) 97,87 %
27.08.2020 05:54 13,7 C 12,8 C 12,8 C 96 % 1017,6 hPa 0,0 l/m 0 min 0 min 0 W/m 0,0 km/h (0 Bft) 97,87 %
27.08.2020 05:56 13,7 C 12,8 C 12,8 C 96 % 1017,5 hPa 0,0 l/m 0 min 0 min 0 W/m 0,0 km/h (0 Bft) 100,00 %
27.08.2020 05:58 13,7 C 12,8 C 12,2 C 96 % 1017,5 hPa 0,0 l/m 0 min 0 min 0 W/m 0,0 km/h (0 Bft) 97,87 %
27.08.2020 06:00 13,7 C 12,8 C 12,2 C 97 % 1017,5 hPa 0,0 l/m 0 min 0 min 0 W/m 0,0 km/h (0 Bft) 93,48 %
27.08.2020 06:02 13,7 C 12,8 C 12,2 C 97 % 1017,5 hPa 0,0 l/m 0 min 0 min 0 W/m 0,0 km/h (0 Bft) 95,74 %
27.08.2020 06:04 13,7 C 12,8 C 12,2 C 96 % 1017,5 hPa 0,0 l/m 0 min 0 min 0 W/m 0,0 km/h (0 Bft) 93,62 %
27.08.2020 06:07 13,7 C 12,8 C 12,2 C 96 % 1017,4 hPa 0,0 l/m 0 min 0 min 0 W/m 0,0 km/h (0 Bft) 94,87 %
27.08.2020 06:08 13,7 C 12,8 C 12,2 C 96 % 1017,4 hPa 0,0 l/m 0 min 0 min 0 W/m 0,0 km/h (0 Bft) 91,30 %
27.08.2020 06:10 13,7 C 12,2 C 12,2 C 96 % 1017,4 hPa 0,0 l/m 0 min 0 min 0 W/m 0,0 km/h (0 Bft) 95,74 %
27.08.2020 06:12 13,7 C 12,2 C 12,2 C 97 % 1017,4 hPa 0,0 l/m 0 min 0 min 0 W/m 0,0 km/h (0 Bft) 97,87 %
27.08.2020 06:14 13,7 C 12,2 C 12,2 C 97 % 1017,4 hPa 0,0 l/m 0 min 0 min 0 W/m 0,0 km/h (0 Bft) 93,62 %
27.08.2020 06:16 13,7 C 12,8 C 12,2 C 97 % 1017,4 hPa 0,0 l/m 0 min 0 min 0 W/m 0,0 km/h (0 Bft) 95,65 %
27.08.2020 06:18 13,7 C 12,8 C 12,2 C 97 % 1017,4 hPa 0,0 l/m 0 min 0 min 0 W/m 0,0 km/h (0 Bft) 95,74 %
27.08.2020 06:20 13,7 C 12,8 C 12,2 C 97 % 1017,4 hPa 0,0 l/m 0 min 0 min 0 W/m 0,0 km/h (0 Bft) 93,62 %
27.08.2020 06:22 13,7 C 12,8 C 12,2 C 97 % 1017,4 hPa 0,0 l/m 0 min 0 min 0 W/m 0,0 km/h (0 Bft) 95,74 %
27.08.2020 06:24 13,7 C 12,2 C 12,2 C 97 % 1017,5 hPa 0,0 l/m 0 min 0 min 0 W/m 0,0 km/h (0 Bft) 93,62 %
27.08.2020 06:26 13,7 C 12,2 C 12,2 C 97 % 1017,4 hPa 0,0 l/m 0 min 0 min 0 W/m 0,0 km/h (0 Bft) 95,74 %
27.08.2020 06:28 13,7 C 12,2 C 12,2 C 97 % 1017,5 hPa 0,0 l/m 0 min 0 min 0 W/m 0,0 km/h (0 Bft) 93,48 %
27.08.2020 06:30 13,7 C 12,2 C 12,2 C 97 % 1017,5 hPa 0,0 l/m 0 min 0 min 0 W/m 0,0 km/h (0 Bft) 93,62 %
27.08.2020 06:32 13,7 C 12,2 C 12,2 C 97 % 1017,6 hPa 0,0 l/m 0 min 0 min 0 W/m 0,0 km/h (0 Bft) 95,74 %
27.08.2020 06:34 13,6 C 12,2 C 12,2 C 97 % 1017,6 hPa 0,0 l/m 0 min 0 min 0 W/m 0,0 km/h (0 Bft) 93,62 %
27.08.2020 06:36 13,6 C 12,2 C 12,2 C 97 % 1017,6 hPa 0,0 l/m 0 min 0 min 0 W/m 0,0 km/h (0 Bft) 93,62 %
27.08.2020 06:38 13,6 C 12,2 C 12,2 C 97 % 1017,6 hPa 0,0 l/m 0 min 0 min 0 W/m 0,0 km/h (0 Bft) 95,74 %
27.08.2020 06:40 13,6 C 12,2 C 12,2 C 97 % 1017,6 hPa 0,0 l/m 0 min 0 min 0 W/m 0,0 km/h (0 Bft) 95,65 %
27.08.2020 06:42 13,6 C 12,8 C 12,2 C 97 % 1017,7 hPa 0,0 l/m 0 min 0 min 0 W/m 0,0 km/h (0 Bft) 91,49 %
27.08.2020 06:44 13,6 C 12,8 C 12,2 C 97 % 1017,7 hPa 0,0 l/m 0 min 0 min 0 W/m 0,0 km/h (0 Bft) 97,87 %
27.08.2020 06:46 13,6 C 12,8 C 12,2 C 97 % 1017,7 hPa 0,0 l/m 0 min 0 min 4 W/m 0,0 km/h (0 Bft) 97,87 %
27.08.2020 06:48 13,6 C 12,8 C 12,2 C 97 % 1017,7 hPa 0,0 l/m 0 min 0 min 5 W/m 0,0 km/h (0 Bft) 97,87 %
27.08.2020 06:50 13,6 C 12,8 C 12,2 C 97 % 1017,6 hPa 0,0 l/m 0 min 0 min 5 W/m 0,0 km/h (0 Bft) 97,87 %
27.08.2020 06:52 13,6 C 12,8 C 12,2 C 97 % 1017,6 hPa 0,0 l/m 0 min 0 min 5 W/m 0,0 km/h (0 Bft) 95,65 %
27.08.2020 06:54 13,6 C 12,8 C 12,2 C 97 % 1017,6 hPa 0,0 l/m 0 min 0 min 5 W/m 0,0 km/h (0 Bft) 95,74 %
27.08.2020 06:56 13,6 C 12,2 C 12,2 C 97 % 1017,6 hPa 0,0 l/m 0 min 0 min 6 W/m 0,0 km/h (0 Bft) 97,87 %
27.08.2020 06:58 13,6 C 12,2 C 12,2 C 97 % 1017,6 hPa 0,0 l/m 0 min 0 min 7 W/m 0,0 km/h (0 Bft) 97,44 %
27.08.2020 07:00 13,6 C 12,8 C 12,2 C 97 % 1017,7 hPa 0,0 l/m 0 min 0 min 7 W/m 0,0 km/h (0 Bft) 100,00 %
27.08.2020 07:02 13,6 C 12,8 C 12,2 C 97 % 1017,6 hPa 0,0 l/m 0 min 0 min 9 W/m 0,0 km/h (0 Bft) 100,00 %
27.08.2020 07:04 13,6 C 12,8 C 12,2 C 97 % 1017,6 hPa 0,0 l/m 0 min 0 min 11 W/m 0,0 km/h (0 Bft) 100,00 %
27.08.2020 07:06 13,6 C 12,8 C 12,2 C 97 % 1017,6 hPa 0,0 l/m 0 min 0 min 11 W/m 0,0 km/h (0 Bft) 100,00 %
27.08.2020 07:08 13,6 C 12,8 C 12,2 C 97 % 1017,5 hPa 0,0 l/m 0 min 0 min 13 W/m 0,0 km/h (0 Bft) 97,87 %
27.08.2020 07:10 13,6 C 12,8 C 12,2 C 97 % 1017,5 hPa 0,0 l/m 0 min 0 min 14 W/m 0,0 km/h (0 Bft) 100,00 %
27.08.2020 07:12 13,6 C 12,8 C 12,2 C 97 % 1017,5 hPa 0,0 l/m 0 min 0 min 15 W/m 0,0 km/h (0 Bft) 97,87 %
27.08.2020 07:14 13,6 C 12,8 C 12,2 C 97 % 1017,5 hPa 0,0 l/m 0 min 0 min 17 W/m 0,0 km/h (0 Bft) 100,00 %
27.08.2020 07:16 13,6 C 12,8 C 12,2 C 97 % 1017,6 hPa 0,0 l/m 0 min 0 min 18 W/m 0,0 km/h (0 Bft) 100,00 %
27.08.2020 07:18 13,6 C 12,8 C 12,2 C 97 % 1017,7 hPa 0,0 l/m 0 min 0 min 19 W/m 0,0 km/h (0 Bft) 97,87 %
27.08.2020 07:20 13,6 C 12,8 C 12,2 C 97 % 1017,7 hPa 0,0 l/m 0 min 0 min 21 W/m 0,0 km/h (0 Bft) 100,00 %
27.08.2020 07:22 13,6 C 12,8 C 12,2 C 97 % 1017,7 hPa 0,0 l/m 0 min 0 min 23 W/m 0,0 km/h (0 Bft) 100,00 %
27.08.2020 07:24 13,6 C 13,3 C 12,2 C 97 % 1017,7 hPa 0,0 l/m 0 min 0 min 25 W/m 0,0 km/h (0 Bft) 100,00 %
27.08.2020 07:26 13,6 C 13,3 C 12,2 C 97 % 1017,7 hPa 0,0 l/m 0 min 0 min 27 W/m 0,0 km/h (0 Bft) 100,00 %
27.08.2020 07:28 13,6 C 13,3 C 12,8 C 97 % 1017,7 hPa 0,0 l/m 0 min 0 min 28 W/m 0,0 km/h (0 Bft) 97,87 %
27.08.2020 07:30 13,6 C 13,3 C 12,8 C 97 % 1017,7 hPa 0,0 l/m 0 min 0 min 28 W/m 0,0 km/h (0 Bft) 97,87 %
27.08.2020 07:32 13,6 C 13,3 C 12,8 C 97 % 1017,6 hPa 0,0 l/m 0 min 0 min 30 W/m 0,0 km/h (0 Bft) 100,00 %
27.08.2020 07:34 13,7 C 13,3 C 12,8 C 97 % 1017,6 hPa 0,0 l/m 0 min 0 min 32 W/m 0,0 km/h (0 Bft) 100,00 %
27.08.2020 07:36 13,7 C 13,3 C 12,8 C 97 % 1017,7 hPa 0,0 l/m 0 min 0 min 34 W/m 0,0 km/h (0 Bft) 97,87 %
27.08.2020 07:38 13,7 C 13,3 C 12,8 C 97 % 1017,7 hPa 0,0 l/m 0 min 0 min 36 W/m 0,0 km/h (0 Bft) 97,87 %
27.08.2020 07:40 13,7 C 13,3 C 12,8 C 97 % 1017,7 hPa 0,0 l/m 0 min 0 min 37 W/m 0,0 km/h (0 Bft) 97,87 %
27.08.2020 07:42 13,7 C 13,3 C 12,8 C 97 % 1017,7 hPa 0,0 l/m 0 min 0 min 36 W/m 0,0 km/h (0 Bft) 97,87 %
27.08.2020 07:44 13,7 C 13,3 C 12,8 C 97 % 1017,7 hPa 0,0 l/m 0 min 0 min 35 W/m 0,0 km/h (0 Bft) 97,87 %
27.08.2020 07:46 13,7 C 13,9 C 12,8 C 97 % 1017,7 hPa 0,0 l/m 0 min 0 min 37 W/m 0,0 km/h (0 Bft) 97,83 %
27.08.2020 07:48 13,7 C 13,9 C 12,8 C 97 % 1017,7 hPa 0,0 l/m 0 min 0 min 37 W/m 0,0 km/h (0 Bft) 97,87 %
27.08.2020 07:50 13,7 C 13,9 C 12,8 C 97 % 1017,7 hPa 0,0 l/m 0 min 0 min 37 W/m 0,0 km/h (0 Bft) 95,74 %
27.08.2020 07:52 13,8 C 13,9 C 12,8 C 97 % 1017,7 hPa 0,0 l/m 0 min 0 min 40 W/m 0,0 km/h (0 Bft) 97,87 %
27.08.2020 07:54 13,8 C 13,9 C 12,8 C 97 % 1017,7 hPa 0,0 l/m 0 min 0 min 49 W/m 0,0 km/h (0 Bft) 97,87 %
27.08.2020 07:56 13,8 C 13,9 C 13,3 C 97 % 1017,7 hPa 0,0 l/m 0 min 0 min 67 W/m 0,0 km/h (0 Bft) 97,83 %
27.08.2020 07:58 13,8 C 14,4 C 13,3 C 97 % 1017,7 hPa 0,0 l/m 0 min 0 min 70 W/m 0,0 km/h (0 Bft) 97,87 %
27.08.2020 08:00 13,9 C 14,4 C 13,3 C 97 % 1017,8 hPa 0,0 l/m 0 min 0 min 69 W/m 0,0 km/h (0 Bft) 95,74 %
27.08.2020 08:02 13,9 C 14,4 C 13,9 C 97 % 1017,7 hPa 0,0 l/m 0 min 0 min 70 W/m 3,2 km/h (1 Bft) 97,87 %
27.08.2020 08:04 14,0 C 14,4 C 13,9 C 97 % 1017,8 hPa 0,0 l/m 0 min 0 min 70 W/m 0,0 km/h (0 Bft) 93,62 %
27.08.2020 08:06 14,1 C 14,4 C 13,9 C 97 % 1017,7 hPa 0,0 l/m 0 min 0 min 70 W/m 0,0 km/h (0 Bft) 93,62 %
27.08.2020 08:08 14,1 C 14,4 C 13,9 C 98 % 1017,7 hPa 0,0 l/m 0 min 0 min 73 W/m 0,0 km/h (0 Bft) 93,48 %
27.08.2020 08:10 14,1 C 15,0 C 13,9 C 98 % 1017,7 hPa 0,0 l/m 0 min 0 min 78 W/m 0,0 km/h (0 Bft) 95,74 %
27.08.2020 08:12 14,1 C 15,0 C 14,4 C 98 % 1017,7 hPa 0,0 l/m 0 min 0 min 84 W/m 0,0 km/h (0 Bft) 97,87 %
27.08.2020 08:14 14,2 C 15,0 C 14,4 C 98 % 1017,7 hPa 0,0 l/m 0 min 0 min 87 W/m 6,4 km/h (2 Bft) 97,87 %
27.08.2020 08:16 14,2 C 15,0 C 14,4 C 98 % 1017,7 hPa 0,0 l/m 0 min 0 min 90 W/m 0,0 km/h (0 Bft) 97,87 %
27.08.2020 08:18 14,3 C 15,0 C 14,4 C 98 % 1017,8 hPa 0,0 l/m 0 min 0 min 84 W/m 0,0 km/h (0 Bft) 95,74 %
27.08.2020 08:20 14,3 C 15,0 C 14,4 C 98 % 1017,8 hPa 0,0 l/m 0 min 0 min 67 W/m 0,0 km/h (0 Bft) 95,65 %
27.08.2020 08:22 14,3 C 15,0 C 14,4 C 98 % 1017,8 hPa 0,0 l/m 0 min 0 min 60 W/m 0,0 km/h (0 Bft) 100,00 %
27.08.2020 08:24 14,3 C 15,0 C 14,4 C 98 % 1017,8 hPa 0,0 l/m 0 min 0 min 65 W/m 0,0 km/h (0 Bft) 97,87 %
27.08.2020 08:26 14,3 C 15,0 C 14,4 C 98 % 1017,7 hPa 0,0 l/m 0 min 0 min 75 W/m 0,0 km/h (0 Bft) 100,00 %
27.08.2020 08:28 14,3 C 15,0 C 14,4 C 98 % 1017,7 hPa 0,0 l/m 0 min 0 min 75 W/m 0,0 km/h (0 Bft) 100,00 %
27.08.2020 08:30 14,3 C 15,6 C 14,4 C 98 % 1017,6 hPa 0,0 l/m 0 min 0 min 71 W/m 0,0 km/h (0 Bft) 97,87 %
27.08.2020 08:32 14,3 C 15,6 C 14,4 C 98 % 1017,6 hPa 0,0 l/m 0 min 0 min 79 W/m 0,0 km/h (0 Bft) 100,00 %
27.08.2020 08:34 14,4 C 15,6 C 14,4 C 98 % 1017,6 hPa 0,0 l/m 0 min 0 min 89 W/m 0,0 km/h (0 Bft) 100,00 %
27.08.2020 08:36 14,4 C 15,6 C 15,0 C 98 % 1017,7 hPa 0,0 l/m 0 min 0 min 99 W/m 0,0 km/h (0 Bft) 97,87 %
27.08.2020 08:38 14,5 C 16,1 C 15,0 C 98 % 1017,6 hPa 0,0 l/m 0 min 0 min 111 W/m 0,0 km/h (0 Bft) 95,74 %
27.08.2020 08:40 14,6 C 16,1 C 15,0 C 98 % 1017,7 hPa 0,0 l/m 0 min 0 min 119 W/m 3,2 km/h (1 Bft) 97,87 %
27.08.2020 08:42 14,6 C 16,1 C 15,0 C 98 % 1017,7 hPa 0,0 l/m 0 min 0 min 118 W/m 6,4 km/h (2 Bft) 97,87 %
27.08.2020 08:44 14,6 C 16,1 C 15,0 C 98 % 1017,6 hPa 0,0 l/m 0 min 0 min 118 W/m 3,2 km/h (1 Bft) 95,65 %
27.08.2020 08:46 14,7 C 16,1 C 15,0 C 98 % 1017,6 hPa 0,0 l/m 0 min 0 min 127 W/m 3,2 km/h (1 Bft) 97,87 %
27.08.2020 08:48 14,8 C 16,7 C 15,6 C 98 % 1017,7 hPa 0,0 l/m 0 min 0 min 149 W/m 0,0 km/h (0 Bft) 95,74 %
27.08.2020 08:50 14,8 C 16,7 C 15,6 C 98 % 1017,7 hPa 0,0 l/m 0 min 0 min 149 W/m 3,2 km/h (1 Bft) 95,74 %
27.08.2020 08:52 14,8 C 16,7 C 15,6 C 98 % 1017,7 hPa 0,0 l/m 2 min 0 min 170 W/m 3,2 km/h (1 Bft) 97,87 %
27.08.2020 08:54 14,9 C 17,2 C 15,6 C 98 % 1017,7 hPa 0,0 l/m 2 min 0 min 216 W/m 3,2 km/h (1 Bft) 97,83 %
27.08.2020 08:56 14,9 C 17,2 C 15,6 C 98 % 1017,7 hPa 0,0 l/m 2 min 0 min 215 W/m 16,1 km/h (3 Bft) 97,87 %
27.08.2020 08:58 15,0 C 16,7 C 15,6 C 98 % 1017,7 hPa 0,0 l/m 2 min 0 min 195 W/m 12,9 km/h (3 Bft) 95,74 %
27.08.2020 09:00 15,1 C 16,7 C 15,6 C 98 % 1017,6 hPa 0,0 l/m 0 min 0 min 165 W/m 6,4 km/h (2 Bft) 97,87 %
27.08.2020 09:02 15,1 C 16,7 C 15,6 C 98 % 1017,6 hPa 0,0 l/m 0 min 0 min 159 W/m 3,2 km/h (1 Bft) 95,74 %
27.08.2020 09:04 15,1 C 16,7 C 15,6 C 98 % 1017,7 hPa 0,0 l/m 0 min 0 min 151 W/m 16,1 km/h (3 Bft) 95,74 %
27.08.2020 09:06 15,2 C 16,7 C 15,6 C 98 % 1017,7 hPa 0,0 l/m 0 min 0 min 139 W/m 9,7 km/h (2 Bft) 97,83 %
27.08.2020 09:08 15,2 C 16,7 C 15,6 C 98 % 1017,6 hPa 0,0 l/m 0 min 0 min 131 W/m 9,7 km/h (2 Bft) 97,87 %
27.08.2020 09:10 15,3 C 16,7 C 15,6 C 98 % 1017,6 hPa 0,0 l/m 0 min 0 min 130 W/m 12,9 km/h (3 Bft) 100,00 %
27.08.2020 09:12 15,3 C 16,7 C 15,6 C 98 % 1017,6 hPa 0,0 l/m 0 min 0 min 141 W/m 6,4 km/h (2 Bft) 95,74 %
27.08.2020 09:14 15,3 C 16,7 C 15,6 C 98 % 1017,6 hPa 0,0 l/m 0 min 0 min 138 W/m 9,7 km/h (2 Bft) 97,87 %
27.08.2020 09:16 15,3 C 16,7 C 15,6 C 98 % 1017,6 hPa 0,0 l/m 0 min 0 min 126 W/m 6,4 km/h (2 Bft) 97,87 %
27.08.2020 09:18 15,4 C 16,7 C 15,6 C 98 % 1017,6 hPa 0,0 l/m 0 min 0 min 131 W/m 6,4 km/h (2 Bft) 95,65 %
27.08.2020 09:20 15,4 C 16,7 C 15,6 C 98 % 1017,6 hPa 0,0 l/m 0 min 0 min 136 W/m 6,4 km/h (2 Bft) 97,87 %
27.08.2020 09:22 15,4 C 16,7 C 15,6 C 98 % 1017,6 hPa 0,0 l/m 0 min 0 min 137 W/m 3,2 km/h (1 Bft) 93,62 %
27.08.2020 09:24 15,5 C 16,7 C 15,6 C 97 % 1017,6 hPa 0,0 l/m 0 min 0 min 139 W/m 6,4 km/h (2 Bft) 97,87 %
27.08.2020 09:26 15,5 C 16,1 C 15,6 C 98 % 1017,5 hPa 0,0 l/m 0 min 0 min 139 W/m 9,7 km/h (2 Bft) 97,87 %
27.08.2020 09:28 15,6 C 16,7 C 15,6 C 97 % 1017,6 hPa 0,0 l/m 0 min 0 min 141 W/m 3,2 km/h (1 Bft) 95,74 %
27.08.2020 09:30 15,6 C 16,7 C 15,6 C 97 % 1017,6 hPa 0,0 l/m 0 min 0 min 134 W/m 12,9 km/h (3 Bft) 97,83 %
27.08.2020 09:32 15,7 C 16,7 C 15,6 C 97 % 1017,6 hPa 0,0 l/m 0 min 0 min 116 W/m 6,4 km/h (2 Bft) 98,15 %
27.08.2020 09:34 15,7 C 16,7 C 15,6 C 96 % 1017,5 hPa 0,0 l/m 0 min 0 min 109 W/m 6,4 km/h (2 Bft) 97,83 %
27.08.2020 09:36 15,7 C 16,7 C 15,6 C 96 % 1017,5 hPa 0,0 l/m 0 min 0 min 113 W/m 6,4 km/h (2 Bft) 97,87 %
27.08.2020 09:38 15,8 C 16,7 C 15,6 C 96 % 1017,5 hPa 0,0 l/m 0 min 0 min 115 W/m 6,4 km/h (2 Bft) 97,87 %
27.08.2020 09:40 15,8 C 16,7 C 15,6 C 96 % 1017,5 hPa 0,0 l/m 0 min 0 min 116 W/m 9,7 km/h (2 Bft) 97,87 %
27.08.2020 09:42 15,8 C 16,7 C 15,6 C 96 % 1017,5 hPa 0,0 l/m 0 min 0 min 105 W/m 6,4 km/h (2 Bft) 97,87 %
27.08.2020 09:44 15,8 C 16,7 C 15,6 C 96 % 1017,6 hPa 0,0 l/m 0 min 0 min 108 W/m 6,4 km/h (2 Bft) 97,87 %
27.08.2020 09:46 15,8 C 16,1 C 15,6 C 95 % 1017,6 hPa 0,0 l/m 0 min 0 min 120 W/m 6,4 km/h (2 Bft) 97,83 %
27.08.2020 09:48 15,9 C 16,7 C 15,6 C 95 % 1017,6 hPa 0,0 l/m 0 min 0 min 134 W/m 6,4 km/h (2 Bft) 97,87 %
27.08.2020 09:50 15,9 C 16,7 C 15,6 C 95 % 1017,6 hPa 0,0 l/m 0 min 0 min 139 W/m 9,7 km/h (2 Bft) 97,87 %
27.08.2020 09:52 15,9 C 16,7 C 15,6 C 94 % 1017,5 hPa 0,0 l/m 0 min 0 min 134 W/m 6,4 km/h (2 Bft) 97,87 %
27.08.2020 09:54 15,9 C 16,7 C 15,6 C 94 % 1017,5 hPa 0,0 l/m 0 min 0 min 139 W/m 0,0 km/h (0 Bft) 97,87 %
27.08.2020 09:56 16,0 C 16,7 C 15,6 C 94 % 1017,6 hPa 0,0 l/m 0 min 0 min 160 W/m 6,4 km/h (2 Bft) 97,87 %
27.08.2020 09:58 16,0 C 16,7 C 15,6 C 94 % 1017,6 hPa 0,0 l/m 0 min 0 min 157 W/m 6,4 km/h (2 Bft) 93,48 %
27.08.2020 10:00 16,1 C 16,7 C 15,6 C 93 % 1017,5 hPa 0,0 l/m 0 min 0 min 156 W/m 3,2 km/h (1 Bft) 97,87 %
27.08.2020 10:02 16,1 C 16,7 C 15,6 C 93 % 1017,6 hPa 0,0 l/m 0 min 0 min 158 W/m 9,7 km/h (2 Bft) 97,87 %
27.08.2020 10:04 16,2 C 16,7 C 16,1 C 93 % 1017,6 hPa 0,0 l/m 0 min 0 min 158 W/m 9,7 km/h (2 Bft) 95,74 %
27.08.2020 10:06 16,2 C 17,2 C 16,1 C 93 % 1017,6 hPa 0,0 l/m 0 min 0 min 172 W/m 3,2 km/h (1 Bft) 97,87 %
27.08.2020 10:08 16,2 C 17,2 C 16,1 C 92 % 1017,6 hPa 0,0 l/m 0 min 0 min 185 W/m 9,7 km/h (2 Bft) 95,74 %
27.08.2020 10:10 16,3 C 17,2 C 16,1 C 92 % 1017,5 hPa 0,0 l/m 0 min 0 min 189 W/m 9,7 km/h (2 Bft) 95,65 %
27.08.2020 10:12 16,3 C 17,2 C 16,1 C 92 % 1017,6 hPa 0,0 l/m 0 min 0 min 192 W/m 12,9 km/h (3 Bft) 93,62 %
27.08.2020 10:14 16,3 C 17,2 C 16,1 C 92 % 1017,7 hPa 0,0 l/m 0 min 0 min 192 W/m 12,9 km/h (3 Bft) 95,74 %
27.08.2020 10:16 16,4 C 17,2 C 16,1 C 91 % 1017,7 hPa 0,0 l/m 0 min 0 min 190 W/m 6,4 km/h (2 Bft) 97,87 %
27.08.2020 10:18 16,4 C 17,2 C 16,1 C 91 % 1017,7 hPa 0,0 l/m 0 min 0 min 181 W/m 12,9 km/h (3 Bft) 97,87 %
27.08.2020 10:20 16,4 C 17,2 C 16,1 C 91 % 1017,7 hPa 0,0 l/m 0 min 0 min 175 W/m 12,9 km/h (3 Bft) 97,83 %
27.08.2020 10:22 16,5 C 17,2 C 16,1 C 91 % 1017,7 hPa 0,0 l/m 0 min 0 min 174 W/m 6,4 km/h (2 Bft) 93,62 %
27.08.2020 10:24 16,5 C 17,2 C 16,1 C 91 % 1017,7 hPa 0,0 l/m 0 min 0 min 171 W/m 12,9 km/h (3 Bft) 95,74 %
27.08.2020 10:26 16,6 C 16,7 C 16,1 C 90 % 1017,6 hPa 0,0 l/m 0 min 0 min 171 W/m 16,1 km/h (3 Bft) 95,74 %
27.08.2020 10:28 16,6 C 16,7 C 16,1 C 90 % 1017,7 hPa 0,0 l/m 0 min 0 min 162 W/m 16,1 km/h (3 Bft) 97,92 %
27.08.2020 10:30 16,6 C 16,7 C 16,1 C 90 % 1017,7 hPa 0,0 l/m 0 min 0 min 139 W/m 16,1 km/h (3 Bft) 97,87 %
27.08.2020 10:32 16,6 C 16,7 C 16,1 C 90 % 1017,6 hPa 0,0 l/m 0 min 0 min 123 W/m 6,4 km/h (2 Bft) 93,48 %
27.08.2020 10:34 16,6 C 16,7 C 16,1 C 90 % 1017,6 hPa 0,0 l/m 0 min 0 min 125 W/m 12,9 km/h (3 Bft) 97,87 %
27.08.2020 10:36 16,6 C 16,7 C 16,1 C 89 % 1017,6 hPa 0,0 l/m 0 min 0 min 133 W/m 12,9 km/h (3 Bft) 97,87 %
27.08.2020 10:38 16,6 C 16,7 C 16,1 C 89 % 1017,6 hPa 0,0 l/m 0 min 0 min 139 W/m 6,4 km/h (2 Bft) 97,87 %
27.08.2020 10:40 16,7 C 16,7 C 16,1 C 89 % 1017,6 hPa 0,0 l/m 0 min 0 min 140 W/m 0,0 km/h (0 Bft) 95,74 %
27.08.2020 10:42 16,7 C 16,7 C 16,1 C 89 % 1017,7 hPa 0,0 l/m 0 min 0 min 133 W/m 9,7 km/h (2 Bft) 97,87 %
27.08.2020 10:44 16,7 C 16,7 C 16,1 C 89 % 1017,7 hPa 0,0 l/m 0 min 0 min 122 W/m 12,9 km/h (3 Bft) 97,83 %
27.08.2020 10:46 16,7 C 16,7 C 16,1 C 89 % 1017,7 hPa 0,0 l/m 0 min 0 min 108 W/m 12,9 km/h (3 Bft) 97,87 %
27.08.2020 10:48 16,7 C 16,7 C 16,1 C 89 % 1017,7 hPa 0,0 l/m 0 min 0 min 92 W/m 16,1 km/h (3 Bft) 97,87 %
27.08.2020 10:50 16,7 C 16,7 C 15,6 C 89 % 1017,6 hPa 0,0 l/m 0 min 0 min 84 W/m 12,9 km/h (3 Bft) 95,74 %
27.08.2020 10:52 16,7 C 16,1 C 15,6 C 89 % 1017,6 hPa 0,0 l/m 0 min 0 min 84 W/m 6,4 km/h (2 Bft) 97,87 %
27.08.2020 10:54 16,7 C 16,1 C 15,6 C 89 % 1017,6 hPa 0,0 l/m 0 min 0 min 89 W/m 6,4 km/h (2 Bft) 100,00 %
27.08.2020 10:56 16,7 C 16,1 C 15,6 C 89 % 1017,5 hPa 0,0 l/m 0 min 0 min 94 W/m 3,2 km/h (1 Bft) 100,00 %
27.08.2020 10:58 16,7 C 16,1 C 15,6 C 89 % 1017,5 hPa 0,0 l/m 0 min 0 min 91 W/m 12,9 km/h (3 Bft) 100,00 %
27.08.2020 11:00 16,7 C 16,1 C 15,6 C 89 % 1017,5 hPa 0,0 l/m 0 min 0 min 80 W/m 12,9 km/h (3 Bft) 97,87 %
27.08.2020 11:02 16,7 C 16,1 C 15,6 C 89 % 1017,5 hPa 0,0 l/m 0 min 0 min 77 W/m 12,9 km/h (3 Bft) 100,00 %
27.08.2020 11:04 16,7 C 16,1 C 15,6 C 89 % 1017,5 hPa 0,0 l/m 0 min 0 min 85 W/m 6,4 km/h (2 Bft) 97,92 %
27.08.2020 11:06 16,6 C 16,1 C 15,6 C 89 % 1017,5 hPa 0,0 l/m 0 min 0 min 90 W/m 9,7 km/h (2 Bft) 100,00 %
27.08.2020 11:08 16,7 C 16,1 C 15,6 C 89 % 1017,5 hPa 0,0 l/m 0 min 0 min 80 W/m 12,9 km/h (3 Bft) 100,00 %
27.08.2020 11:10 16,6 C 16,1 C 15,6 C 89 % 1017,5 hPa 0,0 l/m 0 min 0 min 81 W/m 6,4 km/h (2 Bft) 100,00 %
27.08.2020 11:12 16,7 C 16,1 C 15,6 C 89 % 1017,5 hPa 0,0 l/m 0 min 0 min 91 W/m 6,4 km/h (2 Bft) 97,87 %
27.08.2020 11:14 16,6 C 16,1 C 15,6 C 89 % 1017,5 hPa 0,0 l/m 0 min 0 min 105 W/m 6,4 km/h (2 Bft) 100,00 %
27.08.2020 11:16 16,7 C 16,7 C 15,6 C 89 % 1017,4 hPa 0,0 l/m 0 min 0 min 113 W/m 3,2 km/h (1 Bft) 100,00 %
27.08.2020 11:18 16,6 C 16,7 C 15,6 C 89 % 1017,4 hPa 0,0 l/m 0 min 0 min 113 W/m 9,7 km/h (2 Bft) 100,00 %
27.08.2020 11:20 16,6 C 16,7 C 15,6 C 89 % 1017,2 hPa 0,0 l/m 0 min 0 min 117 W/m 6,4 km/h (2 Bft) 100,00 %
27.08.2020 11:22 16,7 C 16,7 C 16,1 C 89 % 1017,2 hPa 0,0 l/m 0 min 0 min 117 W/m 0,0 km/h (0 Bft) 100,00 %
27.08.2020 11:24 16,7 C 16,7 C 16,1 C 89 % 1017,2 hPa 0,0 l/m 0 min 0 min 107 W/m 9,7 km/h (2 Bft) 100,00 %
27.08.2020 11:26 16,7 C 16,7 C 16,1 C 89 % 1017,3 hPa 0,0 l/m 0 min 0 min 107 W/m 12,9 km/h (3 Bft) 100,00 %
27.08.2020 11:28 16,7 C 16,7 C 15,6 C 89 % 1017,2 hPa 0,0 l/m 0 min 0 min 115 W/m 12,9 km/h (3 Bft) 100,00 %
27.08.2020 11:30 16,7 C 16,7 C 15,6 C 89 % 1017,2 hPa 0,0 l/m 0 min 0 min 119 W/m 6,4 km/h (2 Bft) 100,00 %
27.08.2020 11:32 16,7 C 16,7 C 16,1 C 89 % 1017,1 hPa 0,0 l/m 0 min 0 min 136 W/m 3,2 km/h (1 Bft) 100,00 %
27.08.2020 11:34 16,7 C 17,2 C 16,1 C 89 % 1017,1 hPa 0,0 l/m 0 min 0 min 164 W/m 3,2 km/h (1 Bft) 100,00 %
27.08.2020 11:36 16,7 C 17,2 C 16,1 C 89 % 1017,0 hPa 0,0 l/m 0 min 0 min 182 W/m 3,2 km/h (1 Bft) 93,62 %
27.08.2020 11:38 16,7 C 17,2 C 16,1 C 89 % 1017,0 hPa 0,0 l/m 0 min 0 min 176 W/m 6,4 km/h (2 Bft) 100,00 %
27.08.2020 11:40 16,7 C 17,2 C 16,1 C 89 % 1017,0 hPa 0,0 l/m 0 min 0 min 166 W/m 6,4 km/h (2 Bft) 100,00 %
27.08.2020 11:42 16,7 C 17,8 C 16,1 C 89 % 1017,0 hPa 0,0 l/m 0 min 0 min 174 W/m 3,2 km/h (1 Bft) 100,00 %
27.08.2020 11:44 16,8 C 17,8 C 16,1 C 89 % 1017,0 hPa 0,0 l/m 0 min 0 min 192 W/m 6,4 km/h (2 Bft) 97,87 %
27.08.2020 11:46 16,8 C 17,8 C 16,7 C 89 % 1017,0 hPa 0,0 l/m 0 min 0 min 199 W/m 3,2 km/h (1 Bft) 97,87 %
27.08.2020 11:48 16,8 C 18,3 C 16,7 C 89 % 1017,0 hPa 0,0 l/m 0 min 0 min 200 W/m 0,0 km/h (0 Bft) 100,00 %
27.08.2020 11:50 16,8 C 18,3 C 16,7 C 89 % 1017,0 hPa 0,0 l/m 0 min 0 min 196 W/m 3,2 km/h (1 Bft) 100,00 %
27.08.2020 11:52 16,9 C 18,3 C 16,7 C 89 % 1017,0 hPa 0,0 l/m 0 min 0 min 179 W/m 3,2 km/h (1 Bft) 97,87 %
27.08.2020 11:54 16,9 C 18,3 C 16,7 C 89 % 1017,0 hPa 0,0 l/m 0 min 0 min 178 W/m 6,4 km/h (2 Bft) 97,87 %
27.08.2020 11:56 16,9 C 18,9 C 16,7 C 89 % 1017,0 hPa 0,0 l/m 0 min 0 min 200 W/m 6,4 km/h (2 Bft) 97,87 %
27.08.2020 11:58 17,0 C 18,9 C 16,7 C 89 % 1017,0 hPa 0,0 l/m 0 min 0 min 240 W/m 6,4 km/h (2 Bft) 97,87 %
27.08.2020 12:00 17,0 C 18,3 C 16,7 C 89 % 1016,9 hPa 0,0 l/m 0 min 0 min 251 W/m 12,9 km/h (3 Bft) 97,83 %
27.08.2020 12:02 17,1 C 18,9 C 17,2 C 88 % 1017,0 hPa 0,0 l/m 0 min 0 min 240 W/m 6,4 km/h (2 Bft) 97,87 %
27.08.2020 12:04 17,1 C 18,9 C 17,2 C 88 % 1016,9 hPa 0,0 l/m 0 min 0 min 242 W/m 6,4 km/h (2 Bft) 97,87 %
27.08.2020 12:08 17,2 C 18,9 C 17,2 C 88 % 1017,0 hPa 0,0 l/m 0 min 0 min 228 W/m 6,4 km/h (2 Bft) 97,14 %
27.08.2020 12:10 17,2 C 18,9 C 17,2 C 88 % 1017,1 hPa 0,0 l/m 0 min 0 min 238 W/m 3,2 km/h (1 Bft) 97,14 %
27.08.2020 12:12 17,3 C 19,4 C 17,8 C 88 % 1017,1 hPa 0,0 l/m 0 min 0 min 251 W/m 3,2 km/h (1 Bft) 95,74 %
27.08.2020 12:14 17,3 C 19,4 C 17,8 C 88 % 1017,2 hPa 0,0 l/m 0 min 0 min 200 W/m 12,9 km/h (3 Bft) 97,87 %
27.08.2020 12:16 17,4 C 18,9 C 17,8 C 88 % 1017,2 hPa 0,0 l/m 0 min 0 min 191 W/m 6,4 km/h (2 Bft) 97,87 %
27.08.2020 12:18 17,4 C 19,4 C 17,8 C 88 % 1017,2 hPa 0,0 l/m 0 min 0 min 219 W/m 3,2 km/h (1 Bft) 97,87 %
27.08.2020 12:20 17,5 C 18,9 C 17,8 C 87 % 1017,1 hPa 0,0 l/m 0 min 0 min 237 W/m 6,4 km/h (2 Bft) 97,87 %
27.08.2020 12:22 17,6 C 18,9 C 17,8 C 87 % 1017,2 hPa 0,0 l/m 0 min 0 min 252 W/m 6,4 km/h (2 Bft) 97,87 %
27.08.2020 12:24 17,6 C 19,4 C 17,8 C 87 % 1017,1 hPa 0,0 l/m 0 min 0 min 270 W/m 3,2 km/h (1 Bft) 97,83 %
27.08.2020 12:26 17,7 C 19,4 C 17,8 C 87 % 1017,1 hPa 0,0 l/m 0 min 0 min 227 W/m 6,4 km/h (2 Bft) 95,74 %
27.08.2020 12:28 17,7 C 18,9 C 17,8 C 86 % 1017,1 hPa 0,0 l/m 0 min 0 min 272 W/m 12,9 km/h (3 Bft) 95,74 %
27.08.2020 12:30 17,8 C 18,9 C 17,8 C 86 % 1016,9 hPa 0,0 l/m 0 min 0 min 271 W/m 16,1 km/h (3 Bft) 95,74 %
27.08.2020 12:32 17,8 C 19,4 C 18,3 C 86 % 1016,9 hPa 0,0 l/m 0 min 0 min 327 W/m 6,4 km/h (2 Bft) 97,87 %
27.08.2020 12:34 17,9 C 19,4 C 18,3 C 86 % 1016,6 hPa 0,0 l/m 0 min 0 min 242 W/m 3,2 km/h (1 Bft) 95,74 %
27.08.2020 12:36 17,9 C 18,9 C 17,8 C 85 % 1016,5 hPa 0,0 l/m 0 min 0 min 185 W/m 6,4 km/h (2 Bft) 93,48 %
27.08.2020 12:38 18,0 C 18,9 C 17,8 C 85 % 1016,5 hPa 0,0 l/m 0 min 0 min 202 W/m 12,9 km/h (3 Bft) 89,36 %
27.08.2020 12:40 18,0 C 18,9 C 17,2 C 85 % 1016,5 hPa 0,0 l/m 0 min 0 min 239 W/m 16,1 km/h (3 Bft) 93,62 %
27.08.2020 12:42 18,0 C 18,9 C 17,2 C 84 % 1016,6 hPa 0,0 l/m 0 min 0 min 277 W/m 16,1 km/h (3 Bft) 93,62 %
27.08.2020 12:44 18,1 C 20,6 C 17,8 C 84 % 1016,6 hPa 0,0 l/m 0 min 0 min 262 W/m 6,4 km/h (2 Bft) 91,49 %
27.08.2020 12:46 18,1 C 20,6 C 18,3 C 84 % 1016,6 hPa 0,0 l/m 0 min 0 min 261 W/m 12,9 km/h (3 Bft) 93,48 %
27.08.2020 12:48 18,2 C 20,0 C 18,3 C 84 % 1016,5 hPa 0,0 l/m 0 min 0 min 246 W/m 12,9 km/h (3 Bft) 91,49 %
27.08.2020 12:50 18,2 C 19,4 C 18,3 C 84 % 1016,5 hPa 0,0 l/m 0 min 0 min 319 W/m 12,9 km/h (3 Bft) 93,62 %
27.08.2020 12:52 18,2 C 19,4 C 18,3 C 83 % 1016,5 hPa 0,0 l/m 0 min 0 min 259 W/m 6,4 km/h (2 Bft) 93,62 %
27.08.2020 12:54 18,2 C 20,0 C 18,3 C 83 % 1016,5 hPa 0,0 l/m 0 min 0 min 302 W/m 16,1 km/h (3 Bft) 93,62 %
27.08.2020 12:56 18,3 C 20,6 C 18,3 C 83 % 1016,4 hPa 0,0 l/m 2 min 0 min 379 W/m 16,1 km/h (3 Bft) 87,23 %
27.08.2020 12:58 18,3 C 21,1 C 18,9 C 83 % 1016,4 hPa 0,0 l/m 2 min 0 min 374 W/m 16,1 km/h (3 Bft) 93,62 %
27.08.2020 13:00 18,4 C 22,2 C 18,9 C 83 % 1016,4 hPa 0,0 l/m 2 min 0 min 386 W/m 6,4 km/h (2 Bft) 95,65 %
27.08.2020 13:02 18,4 C 24,4 C 19,4 C 83 % 1016,4 hPa 0,0 l/m 2 min 0 min 481 W/m 16,1 km/h (3 Bft) 93,62 %
27.08.2020 13:04 18,6 C 26,7 C 19,4 C 84 % 1016,3 hPa 0,0 l/m 2 min 0 min 1005 W/m 12,9 km/h (3 Bft) 95,74 %
27.08.2020 13:06 18,7 C 26,1 C 19,4 C 83 % 1016,3 hPa 0,0 l/m 2 min 0 min 833 W/m 12,9 km/h (3 Bft) 95,65 %
27.08.2020 13:08 18,9 C 25,0 C 19,4 C 83 % 1016,4 hPa 0,0 l/m 2 min 0 min 407 W/m 12,9 km/h (3 Bft) 95,74 %
27.08.2020 13:10 19,1 C 25,6 C 19,4 C 82 % 1016,4 hPa 0,0 l/m 0 min 0 min 278 W/m 19,3 km/h (3 Bft) 95,74 %
27.08.2020 13:12 19,2 C 26,1 C 19,4 C 82 % 1016,5 hPa 0,0 l/m 2 min 0 min 783 W/m 16,1 km/h (3 Bft) 97,87 %
27.08.2020 13:14 19,3 C 26,1 C 19,4 C 81 % 1016,5 hPa 0,0 l/m 2 min 0 min 868 W/m 12,9 km/h (3 Bft) 97,87 %
27.08.2020 13:16 19,6 C 27,2 C 19,4 C 81 % 1016,5 hPa 0,0 l/m 2 min 0 min 884 W/m 12,9 km/h (3 Bft) 95,74 %
27.08.2020 13:18 19,7 C 27,2 C 19,4 C 80 % 1016,5 hPa 0,0 l/m 2 min 0 min 913 W/m 16,1 km/h (3 Bft) 97,83 %
27.08.2020 13:20 19,9 C 24,4 C 19,4 C 79 % 1016,6 hPa 0,0 l/m 2 min 0 min 850 W/m 19,3 km/h (3 Bft) 100,00 %
27.08.2020 13:22 20,0 C 22,8 C 19,4 C 78 % 1016,5 hPa 0,0 l/m 0 min 0 min 275 W/m 19,3 km/h (3 Bft) 100,00 %
27.08.2020 13:24 20,1 C 21,1 C 18,9 C 77 % 1016,5 hPa 0,0 l/m 0 min 0 min 254 W/m 19,3 km/h (3 Bft) 97,87 %
27.08.2020 13:26 20,1 C 23,9 C 18,9 C 77 % 1016,4 hPa 0,0 l/m 0 min 0 min 359 W/m 6,4 km/h (2 Bft) 100,00 %
27.08.2020 13:28 20,3 C 26,7 C 19,4 C 78 % 1016,2 hPa 0,0 l/m 2 min 0 min 887 W/m 6,4 km/h (2 Bft) 95,65 %
27.08.2020 13:30 20,4 C 27,2 C 19,4 C 77 % 1016,2 hPa 0,0 l/m 2 min 0 min 870 W/m 16,1 km/h (3 Bft) 100,00 %
27.08.2020 13:32 20,5 C 27,2 C 19,4 C 77 % 1016,1 hPa 0,0 l/m 2 min 0 min 861 W/m 12,9 km/h (3 Bft) 100,00 %
27.08.2020 13:34 20,6 C 27,8 C 19,4 C 75 % 1016,1 hPa 0,0 l/m 2 min 0 min 857 W/m 6,4 km/h (2 Bft) 100,00 %
27.08.2020 13:36 20,7 C 27,2 C 20,0 C 75 % 1016,0 hPa 0,0 l/m 2 min 0 min 904 W/m 16,1 km/h (3 Bft) 97,87 %
27.08.2020 13:38 20,8 C 26,7 C 20,0 C 74 % 1015,9 hPa 0,0 l/m 2 min 0 min 902 W/m 16,1 km/h (3 Bft) 100,00 %
27.08.2020 13:40 20,9 C 28,3 C 20,0 C 75 % 1015,8 hPa 0,0 l/m 2 min 0 min 900 W/m 12,9 km/h (3 Bft) 100,00 %
27.08.2020 13:42 21,1 C 28,9 C 20,6 C 75 % 1015,9 hPa 0,0 l/m 2 min 0 min 894 W/m 12,9 km/h (3 Bft) 100,00 %
27.08.2020 13:44 21,2 C 28,9 C 20,6 C 75 % 1015,8 hPa 0,0 l/m 2 min 0 min 904 W/m 16,1 km/h (3 Bft) 100,00 %
27.08.2020 13:46 21,3 C 28,3 C 20,6 C 74 % 1015,8 hPa 0,0 l/m 2 min 0 min 917 W/m 16,1 km/h (3 Bft) 100,00 %
27.08.2020 13:48 21,4 C 28,9 C 20,0 C 73 % 1015,8 hPa 0,0 l/m 2 min 0 min 922 W/m 16,1 km/h (3 Bft) 97,87 %
27.08.2020 13:50 21,5 C 28,9 C 20,6 C 73 % 1015,7 hPa 0,0 l/m 2 min 0 min 924 W/m 16,1 km/h (3 Bft) 100,00 %
27.08.2020 13:52 21,6 C 27,8 C 20,6 C 72 % 1015,7 hPa 0,0 l/m 2 min 0 min 914 W/m 19,3 km/h (3 Bft) 97,83 %
27.08.2020 13:54 21,7 C 27,2 C 20,6 C 71 % 1015,6 hPa 0,0 l/m 2 min 0 min 920 W/m 16,1 km/h (3 Bft) 100,00 %
27.08.2020 13:56 21,8 C 27,8 C 20,6 C 71 % 1015,7 hPa 0,0 l/m 2 min 0 min 952 W/m 16,1 km/h (3 Bft) 100,00 %
27.08.2020 13:58 21,8 C 27,2 C 20,6 C 70 % 1015,6 hPa 0,0 l/m 2 min 0 min 939 W/m 19,3 km/h (3 Bft) 97,87 %
27.08.2020 14:00 21,9 C 26,1 C 20,6 C 70 % 1015,5 hPa 0,0 l/m 2 min 0 min 763 W/m 19,3 km/h (3 Bft) 100,00 %
27.08.2020 14:02 21,9 C 25,6 C 20,6 C 70 % 1015,5 hPa 0,0 l/m 2 min 0 min 599 W/m 16,1 km/h (3 Bft) 100,00 %
27.08.2020 14:04 21,9 C 25,6 C 21,1 C 70 % 1015,5 hPa 0,0 l/m 2 min 0 min 664 W/m 6,4 km/h (2 Bft) 100,00 %
27.08.2020 14:06 21,8 C 25,0 C 21,7 C 69 % 1015,5 hPa 0,0 l/m 2 min 0 min 413 W/m 16,1 km/h (3 Bft) 100,00 %
27.08.2020 14:08 21,8 C 23,9 C 21,1 C 69 % 1015,5 hPa 0,0 l/m 2 min 0 min 385 W/m 6,4 km/h (2 Bft) 100,00 %
27.08.2020 14:10 21,8 C 23,3 C 20,6 C 69 % 1015,5 hPa 0,0 l/m 0 min 0 min 295 W/m 12,9 km/h (3 Bft) 100,00 %
27.08.2020 14:12 21,8 C 22,8 C 20,0 C 69 % 1015,4 hPa 0,0 l/m 0 min 0 min 273 W/m 12,9 km/h (3 Bft) 100,00 %
27.08.2020 14:14 21,7 C 22,2 C 20,0 C 69 % 1015,5 hPa 0,0 l/m 0 min 0 min 240 W/m 12,9 km/h (3 Bft) 100,00 %
27.08.2020 14:16 21,7 C 22,2 C 20,0 C 69 % 1015,5 hPa 0,0 l/m 0 min 0 min 263 W/m 12,9 km/h (3 Bft) 97,83 %
27.08.2020 14:18 21,6 C 21,7 C 19,4 C 69 % 1015,5 hPa 0,0 l/m 0 min 0 min 278 W/m 19,3 km/h (3 Bft) 100,00 %
27.08.2020 14:20 21,5 C 21,7 C 19,4 C 69 % 1015,5 hPa 0,0 l/m 0 min 0 min 284 W/m 16,1 km/h (3 Bft) 100,00 %
27.08.2020 14:22 21,4 C 21,1 C 19,4 C 69 % 1015,5 hPa 0,0 l/m 0 min 0 min 214 W/m 16,1 km/h (3 Bft) 97,87 %
27.08.2020 14:24 21,3 C 21,7 C 19,4 C 69 % 1015,4 hPa 0,0 l/m 0 min 0 min 252 W/m 22,5 km/h (4 Bft) 100,00 %
27.08.2020 14:26 21,2 C 22,8 C 19,4 C 70 % 1015,3 hPa 0,0 l/m 0 min 0 min 253 W/m 19,3 km/h (3 Bft) 100,00 %
27.08.2020 14:28 21,2 C 23,3 C 20,0 C 70 % 1015,3 hPa 0,0 l/m 0 min 0 min 253 W/m 16,1 km/h (3 Bft) 100,00 %
27.08.2020 14:30 21,2 C 25,6 C 20,0 C 70 % 1015,2 hPa 0,0 l/m 2 min 0 min 675 W/m 12,9 km/h (3 Bft) 100,00 %
27.08.2020 14:32 21,2 C 25,0 C 20,6 C 70 % 1015,2 hPa 0,0 l/m 2 min 0 min 810 W/m 16,1 km/h (3 Bft) 100,00 %
27.08.2020 14:34 21,2 C 23,3 C 20,0 C 70 % 1015,2 hPa 0,0 l/m 0 min 0 min 333 W/m 12,9 km/h (3 Bft) 100,00 %
27.08.2020 14:36 21,2 C 22,8 C 20,0 C 70 % 1015,2 hPa 0,0 l/m 0 min 0 min 249 W/m 16,1 km/h (3 Bft) 100,00 %
27.08.2020 14:38 21,2 C 22,8 C 20,0 C 71 % 1015,2 hPa 0,0 l/m 0 min 0 min 263 W/m 9,7 km/h (2 Bft) 100,00 %
27.08.2020 14:40 21,2 C 23,9 C 20,0 C 70 % 1015,1 hPa 0,0 l/m 0 min 0 min 278 W/m 6,4 km/h (2 Bft) 97,87 %
27.08.2020 14:42 21,2 C 27,2 C 20,6 C 72 % 1015,1 hPa 0,0 l/m 2 min 0 min 387 W/m 3,2 km/h (1 Bft) 100,00 %
27.08.2020 14:44 21,3 C 27,8 C 20,6 C 71 % 1015,0 hPa 0,0 l/m 2 min 0 min 907 W/m 12,9 km/h (3 Bft) 100,00 %
27.08.2020 14:46 21,4 C 26,7 C 20,6 C 70 % 1015,0 hPa 0,0 l/m 2 min 0 min 877 W/m 19,3 km/h (3 Bft) 100,00 %
27.08.2020 14:48 21,4 C 25,6 C 20,6 C 69 % 1015,0 hPa 0,0 l/m 2 min 0 min 862 W/m 16,1 km/h (3 Bft) 100,00 %
27.08.2020 14:50 21,5 C 24,4 C 20,0 C 68 % 1015,0 hPa 0,0 l/m 2 min 0 min 354 W/m 12,9 km/h (3 Bft) 100,00 %
27.08.2020 14:52 21,6 C 26,1 C 20,6 C 69 % 1015,0 hPa 0,0 l/m 2 min 0 min 508 W/m 16,1 km/h (3 Bft) 100,00 %
27.08.2020 14:54 21,6 C 27,2 C 21,1 C 70 % 1014,9 hPa 0,0 l/m 2 min 0 min 866 W/m 12,9 km/h (3 Bft) 100,00 %
27.08.2020 14:56 21,7 C 27,8 C 21,1 C 68 % 1014,9 hPa 0,0 l/m 2 min 0 min 852 W/m 16,1 km/h (3 Bft) 100,00 %
27.08.2020 14:58 21,8 C 27,8 C 21,1 C 68 % 1014,8 hPa 0,0 l/m 2 min 0 min 829 W/m 12,9 km/h (3 Bft) 95,74 %
27.08.2020 15:00 21,9 C 27,2 C 21,1 C 67 % 1014,8 hPa 0,0 l/m 2 min 0 min 777 W/m 19,3 km/h (3 Bft) 97,83 %
27.08.2020 15:02 21,9 C 28,3 C 21,1 C 67 % 1014,8 hPa 0,0 l/m 2 min 0 min 792 W/m 12,9 km/h (3 Bft) 97,87 %
27.08.2020 15:04 22,1 C 27,8 C 21,1 C 67 % 1014,7 hPa 0,0 l/m 2 min 0 min 801 W/m 16,1 km/h (3 Bft) 97,87 %
27.08.2020 15:06 22,1 C 27,2 C 21,1 C 67 % 1014,7 hPa 0,0 l/m 2 min 0 min 722 W/m 25,7 km/h (4 Bft) 97,87 %
27.08.2020 15:08 22,2 C 25,6 C 21,1 C 65 % 1014,6 hPa 0,0 l/m 2 min 0 min 601 W/m 19,3 km/h (3 Bft) 95,74 %
27.08.2020 15:10 22,2 C 27,2 C 21,1 C 67 % 1014,6 hPa 0,0 l/m 2 min 0 min 609 W/m 6,4 km/h (2 Bft) 95,74 %
27.08.2020 15:12 22,3 C 27,8 C 21,1 C 67 % 1014,6 hPa 0,0 l/m 2 min 0 min 904 W/m 16,1 km/h (3 Bft) 97,87 %
27.08.2020 15:14 22,3 C 26,7 C 20,6 C 65 % 1014,5 hPa 0,0 l/m 2 min 0 min 816 W/m 16,1 km/h (3 Bft) 97,83 %
27.08.2020 15:16 22,4 C 27,8 C 21,1 C 67 % 1014,6 hPa 0,0 l/m 2 min 0 min 752 W/m 3,2 km/h (1 Bft) 91,49 %
27.08.2020 15:18 22,4 C 27,8 C 21,1 C 66 % 1014,5 hPa 0,0 l/m 2 min 0 min 735 W/m 16,1 km/h (3 Bft) 91,49 %
27.08.2020 15:20 22,5 C 26,7 C 21,1 C 64 % 1014,5 hPa 0,0 l/m 2 min 0 min 751 W/m 12,9 km/h (3 Bft) 95,74 %
27.08.2020 15:22 22,6 C 27,2 C 21,1 C 64 % 1014,5 hPa 0,0 l/m 2 min 0 min 785 W/m 12,9 km/h (3 Bft) 95,74 %
27.08.2020 15:24 22,6 C 27,8 C 21,7 C 65 % 1014,6 hPa 0,0 l/m 2 min 0 min 810 W/m 12,9 km/h (3 Bft) 93,48 %
27.08.2020 15:26 22,7 C 28,3 C 21,7 C 64 % 1014,6 hPa 0,0 l/m 2 min 0 min 814 W/m 16,1 km/h (3 Bft) 87,23 %
27.08.2020 15:28 22,7 C 27,8 C 21,7 C 63 % 1014,5 hPa 0,0 l/m 2 min 0 min 823 W/m 16,1 km/h (3 Bft) 95,74 %
27.08.2020 15:30 22,8 C 28,3 C 21,7 C 62 % 1014,5 hPa 0,0 l/m 2 min 0 min 790 W/m 12,9 km/h (3 Bft) 95,74 %
27.08.2020 15:32 22,8 C 28,3 C 21,7 C 63 % 1014,5 hPa 0,0 l/m 2 min 0 min 771 W/m 16,1 km/h (3 Bft) 93,62 %
27.08.2020 15:34 22,9 C 28,3 C 21,7 C 63 % 1014,6 hPa 0,0 l/m 2 min 0 min 759 W/m 9,7 km/h (2 Bft) 91,30 %
27.08.2020 15:36 23,0 C 27,2 C 21,7 C 63 % 1014,6 hPa 0,0 l/m 2 min 0 min 630 W/m 16,1 km/h (3 Bft) 93,62 %
27.08.2020 15:38 23,0 C 25,0 C 21,1 C 62 % 1014,5 hPa 0,0 l/m 2 min 0 min 422 W/m 12,9 km/h (3 Bft) 93,62 %
27.08.2020 15:40 22,9 C 24,4 C 21,1 C 62 % 1014,5 hPa 0,0 l/m 0 min 0 min 265 W/m 12,9 km/h (3 Bft) 95,74 %
27.08.2020 15:42 22,9 C 24,4 C 20,6 C 62 % 1014,4 hPa 0,0 l/m 2 min 0 min 503 W/m 16,1 km/h (3 Bft) 95,74 %
27.08.2020 15:44 22,9 C 26,1 C 21,1 C 64 % 1014,3 hPa 0,0 l/m 2 min 0 min 679 W/m 6,4 km/h (2 Bft) 95,74 %
27.08.2020 15:46 22,9 C 27,2 C 21,1 C 63 % 1014,2 hPa 0,0 l/m 2 min 0 min 799 W/m 16,1 km/h (3 Bft) 95,12 %
27.08.2020 15:48 22,9 C 27,8 C 21,7 C 63 % 1014,2 hPa 0,0 l/m 2 min 0 min 809 W/m 16,1 km/h (3 Bft) 93,62 %
27.08.2020 15:50 22,9 C 26,7 C 21,7 C 61 % 1014,3 hPa 0,0 l/m 2 min 0 min 772 W/m 16,1 km/h (3 Bft) 95,74 %
27.08.2020 15:52 22,9 C 24,4 C 21,1 C 60 % 1014,2 hPa 0,0 l/m 2 min 0 min 440 W/m 19,3 km/h (3 Bft) 95,65 %
27.08.2020 15:54 22,8 C 23,3 C 21,1 C 59 % 1014,2 hPa 0,0 l/m 0 min 0 min 192 W/m 16,1 km/h (3 Bft) 91,49 %
27.08.2020 15:56 22,7 C 23,9 C 21,1 C 59 % 1014,1 hPa 0,0 l/m 0 min 0 min 215 W/m 19,3 km/h (3 Bft) 95,74 %
27.08.2020 15:58 22,7 C 25,6 C 21,1 C 60 % 1014,2 hPa 0,0 l/m 2 min 0 min 496 W/m 19,3 km/h (3 Bft) 95,74 %
27.08.2020 16:00 22,7 C 26,1 C 21,7 C 61 % 1014,2 hPa 0,0 l/m 2 min 0 min 730 W/m 9,7 km/h (2 Bft) 95,74 %
27.08.2020 16:02 22,8 C 27,2 C 21,7 C 62 % 1014,2 hPa 0,0 l/m 2 min 0 min 717 W/m 6,4 km/h (2 Bft) 95,74 %
27.08.2020 16:04 22,8 C 28,3 C 22,2 C 61 % 1014,1 hPa 0,0 l/m 2 min 0 min 748 W/m 19,3 km/h (3 Bft) 95,65 %
27.08.2020 16:06 23,0 C 28,3 C 22,2 C 62 % 1014,1 hPa 0,0 l/m 2 min 0 min 739 W/m 16,1 km/h (3 Bft) 93,62 %
27.08.2020 16:08 23,1 C 26,1 C 22,2 C 61 % 1014,1 hPa 0,0 l/m 2 min 0 min 704 W/m 16,1 km/h (3 Bft) 95,56 %
27.08.2020 16:10 23,1 C 24,4 C 21,7 C 61 % 1014,1 hPa 0,0 l/m 0 min 0 min 134 W/m 12,9 km/h (3 Bft) 97,87 %
27.08.2020 16:12 23,1 C 23,9 C 21,1 C 60 % 1014,0 hPa 0,0 l/m 0 min 0 min 135 W/m 12,9 km/h (3 Bft) 97,83 %
27.08.2020 16:14 23,1 C 24,4 C 21,1 C 61 % 1013,8 hPa 0,0 l/m 2 min 0 min 435 W/m 12,9 km/h (3 Bft) 95,74 %
27.08.2020 16:16 23,1 C 25,6 C 21,7 C 61 % 1013,7 hPa 0,0 l/m 2 min 0 min 596 W/m 16,1 km/h (3 Bft) 95,74 %
27.08.2020 16:18 23,1 C 25,6 C 21,7 C 60 % 1013,5 hPa 0,0 l/m 2 min 0 min 568 W/m 16,1 km/h (3 Bft) 97,87 %
27.08.2020 16:20 23,1 C 25,0 C 21,1 C 60 % 1013,4 hPa 0,0 l/m 2 min 0 min 548 W/m 19,3 km/h (3 Bft) 97,87 %
27.08.2020 16:22 23,0 C 24,4 C 21,1 C 59 % 1013,4 hPa 0,0 l/m 2 min 0 min 383 W/m 25,7 km/h (4 Bft) 97,83 %
27.08.2020 16:24 22,9 C 25,0 C 21,7 C 58 % 1013,5 hPa 0,0 l/m 2 min 0 min 383 W/m 12,9 km/h (3 Bft) 95,74 %
27.08.2020 16:26 22,9 C 25,0 C 21,1 C 59 % 1013,6 hPa 0,0 l/m 2 min 0 min 381 W/m 12,9 km/h (3 Bft) 97,87 %
27.08.2020 16:29 22,9 C 26,1 C 21,7 C 59 % 1013,3 hPa 0,0 l/m 3 min 0 min 425 W/m 22,5 km/h (4 Bft) 100,00 %
27.08.2020 16:30 22,9 C 26,1 C 21,7 C 59 % 1013,3 hPa 0,0 l/m 1 min 0 min 706 W/m 22,5 km/h (4 Bft) 100,00 %
27.08.2020 16:32 22,9 C 26,7 C 21,7 C 59 % 1013,3 hPa 0,0 l/m 2 min 0 min 684 W/m 22,5 km/h (4 Bft) 100,00 %
27.08.2020 16:34 22,9 C 26,7 C 21,7 C 58 % 1013,4 hPa 0,0 l/m 2 min 0 min 656 W/m 16,1 km/h (3 Bft) 100,00 %
27.08.2020 16:36 22,9 C 26,1 C 21,7 C 59 % 1013,5 hPa 0,0 l/m 2 min 0 min 610 W/m 12,9 km/h (3 Bft) 100,00 %
27.08.2020 16:38 23,0 C 26,1 C 21,7 C 59 % 1013,4 hPa 0,0 l/m 2 min 0 min 496 W/m 12,9 km/h (3 Bft) 100,00 %
27.08.2020 16:40 23,1 C 25,0 C 21,7 C 58 % 1013,4 hPa 0,0 l/m 2 min 0 min 387 W/m 12,9 km/h (3 Bft) 100,00 %
27.08.2020 16:42 23,1 C 25,0 C 21,1 C 58 % 1013,3 hPa 0,0 l/m 0 min 0 min 211 W/m 16,1 km/h (3 Bft) 100,00 %
27.08.2020 16:44 23,1 C 25,6 C 21,1 C 58 % 1013,3 hPa 0,0 l/m 0 min 0 min 234 W/m 16,1 km/h (3 Bft) 100,00 %
27.08.2020 16:46 23,1 C 24,4 C 21,7 C 58 % 1013,3 hPa 0,0 l/m 2 min 0 min 445 W/m 16,1 km/h (3 Bft) 100,00 %
27.08.2020 16:48 23,0 C 23,9 C 21,1 C 58 % 1013,2 hPa 0,0 l/m 2 min 0 min 372 W/m 22,5 km/h (4 Bft) 100,00 %
27.08.2020 16:50 22,9 C 23,3 C 21,1 C 58 % 1013,2 hPa 0,0 l/m 2 min 0 min 302 W/m 19,3 km/h (3 Bft) 100,00 %
27.08.2020 16:52 22,9 C 22,8 C 21,1 C 57 % 1013,2 hPa 0,0 l/m 0 min 0 min 232 W/m 12,9 km/h (3 Bft) 95,74 %
27.08.2020 16:54 22,9 C 22,8 C 21,1 C 57 % 1013,1 hPa 0,0 l/m 0 min 0 min 211 W/m 22,5 km/h (4 Bft) 97,87 %
27.08.2020 16:56 22,9 C 22,8 C 20,6 C 57 % 1013,0 hPa 0,0 l/m 0 min 0 min 201 W/m 16,1 km/h (3 Bft) 100,00 %
27.08.2020 16:58 22,8 C 22,8 C 21,1 C 57 % 1012,9 hPa 0,0 l/m 0 min 0 min 189 W/m 9,7 km/h (2 Bft) 100,00 %
27.08.2020 17:02 22,8 C 23,3 C 21,1 C 58 % 1012,9 hPa 0,0 l/m 4 min 0 min 308 W/m 16,1 km/h (3 Bft) 97,62 %
27.08.2020 17:04 22,8 C 23,9 C 21,1 C 59 % 1012,8 hPa 0,0 l/m 2 min 0 min 307 W/m 12,9 km/h (3 Bft) 100,00 %
27.08.2020 17:06 22,8 C 23,9 C 21,7 C 59 % 1012,7 hPa 0,0 l/m 2 min 0 min 324 W/m 12,9 km/h (3 Bft) 100,00 %
27.08.2020 17:08 22,7 C 24,4 C 22,2 C 59 % 1012,7 hPa 0,0 l/m 2 min 0 min 403 W/m 12,9 km/h (3 Bft) 100,00 %
27.08.2020 17:10 22,8 C 25,6 C 22,8 C 59 % 1012,7 hPa 0,0 l/m 2 min 0 min 526 W/m 6,4 km/h (2 Bft) 100,00 %
27.08.2020 17:12 22,8 C 26,1 C 22,8 C 59 % 1012,7 hPa 0,0 l/m 2 min 0 min 644 W/m 16,1 km/h (3 Bft) 97,87 %
27.08.2020 17:14 22,8 C 26,7 C 23,3 C 59 % 1012,5 hPa 0,0 l/m 2 min 0 min 643 W/m 12,9 km/h (3 Bft) 100,00 %
27.08.2020 17:16 22,8 C 25,6 C 22,8 C 60 % 1012,5 hPa 0,0 l/m 2 min 0 min 457 W/m 9,7 km/h (2 Bft) 100,00 %
27.08.2020 17:18 22,9 C 23,9 C 21,7 C 59 % 1012,5 hPa 0,0 l/m 0 min 0 min 234 W/m 19,3 km/h (3 Bft) 100,00 %
27.08.2020 17:20 22,9 C 23,9 C 21,1 C 59 % 1012,4 hPa 0,0 l/m 0 min 0 min 167 W/m 12,9 km/h (3 Bft) 100,00 %
27.08.2020 17:22 22,9 C 22,8 C 21,1 C 60 % 1012,4 hPa 0,0 l/m 0 min 0 min 143 W/m 16,1 km/h (3 Bft) 100,00 %
27.08.2020 17:24 22,9 C 22,2 C 21,1 C 60 % 1012,3 hPa 0,0 l/m 0 min 0 min 154 W/m 12,9 km/h (3 Bft) 100,00 %
27.08.2020 17:26 22,9 C 22,2 C 20,6 C 60 % 1012,3 hPa 0,0 l/m 0 min 0 min 172 W/m 16,1 km/h (3 Bft) 100,00 %
27.08.2020 17:28 22,8 C 22,2 C 20,6 C 59 % 1012,2 hPa 0,0 l/m 0 min 0 min 177 W/m 16,1 km/h (3 Bft) 100,00 %
27.08.2020 17:30 22,8 C 22,2 C 20,6 C 59 % 1012,2 hPa 0,0 l/m 0 min 0 min 181 W/m 12,9 km/h (3 Bft) 95,65 %
27.08.2020 17:32 22,8 C 22,2 C 20,6 C 59 % 1012,2 hPa 0,0 l/m 0 min 0 min 171 W/m 12,9 km/h (3 Bft) 97,92 %
27.08.2020 17:34 22,7 C 22,2 C 20,6 C 59 % 1012,1 hPa 0,0 l/m 0 min 0 min 155 W/m 16,1 km/h (3 Bft) 97,87 %
27.08.2020 17:36 22,7 C 22,2 C 20,6 C 59 % 1012,1 hPa 0,0 l/m 0 min 0 min 143 W/m 16,1 km/h (3 Bft) 97,87 %
27.08.2020 17:38 22,7 C 21,7 C 20,6 C 59 % 1012,1 hPa 0,0 l/m 0 min 0 min 135 W/m 12,9 km/h (3 Bft) 95,74 %
27.08.2020 17:40 22,6 C 21,7 C 20,6 C 59 % 1012,2 hPa 0,0 l/m 0 min 0 min 130 W/m 12,9 km/h (3 Bft) 95,74 %
27.08.2020 17:42 22,6 C 21,7 C 20,6 C 59 % 1012,1 hPa 0,0 l/m 0 min 0 min 123 W/m 12,9 km/h (3 Bft) 93,48 %
27.08.2020 17:44 22,5 C 21,7 C 20,6 C 59 % 1012,1 hPa 0,0 l/m 0 min 0 min 118 W/m 6,4 km/h (2 Bft) 97,87 %
27.08.2020 17:46 22,5 C 21,7 C 20,6 C 59 % 1012,1 hPa 0,0 l/m 0 min 0 min 112 W/m 12,9 km/h (3 Bft) 97,87 %
27.08.2020 17:48 22,4 C 21,7 C 20,6 C 59 % 1012,1 hPa 0,0 l/m 0 min 0 min 106 W/m 6,4 km/h (2 Bft) 97,87 %
27.08.2020 17:50 22,4 C 21,7 C 20,6 C 59 % 1012,1 hPa 0,0 l/m 0 min 0 min 102 W/m 6,4 km/h (2 Bft) 97,87 %
27.08.2020 17:52 22,4 C 21,7 C 20,6 C 60 % 1012,0 hPa 0,0 l/m 0 min 0 min 102 W/m 6,4 km/h (2 Bft) 97,87 %
27.08.2020 17:54 22,3 C 21,7 C 20,0 C 60 % 1011,9 hPa 0,0 l/m 0 min 0 min 106 W/m 12,9 km/h (3 Bft) 97,83 %
27.08.2020 17:56 22,3 C 21,7 C 20,0 C 60 % 1011,8 hPa 0,0 l/m 0 min 0 min 113 W/m 12,9 km/h (3 Bft) 93,62 %
27.08.2020 17:58 22,3 C 21,7 C 20,6 C 59 % 1011,8 hPa 0,0 l/m 0 min 0 min 123 W/m 12,9 km/h (3 Bft) 97,87 %
27.08.2020 18:00 22,2 C 21,7 C 20,6 C 59 % 1011,8 hPa 0,0 l/m 0 min 0 min 135 W/m 12,9 km/h (3 Bft) 95,74 %
27.08.2020 18:02 22,2 C 21,7 C 20,6 C 60 % 1011,9 hPa 0,0 l/m 0 min 0 min 147 W/m 6,4 km/h (2 Bft) 97,87 %
27.08.2020 18:04 22,2 C 22,2 C 20,6 C 60 % 1011,9 hPa 0,0 l/m 0 min 0 min 152 W/m 6,4 km/h (2 Bft) 97,87 %
27.08.2020 18:08 22,1 C 22,2 C 20,6 C 61 % 1011,7 hPa 0,0 l/m 0 min 0 min 154 W/m 6,4 km/h (2 Bft) 97,87 %
27.08.2020 18:10 22,1 C 22,2 C 20,6 C 60 % 1011,6 hPa 0,0 l/m 0 min 0 min 149 W/m 12,9 km/h (3 Bft) 98,00 %
27.08.2020 18:12 22,1 C 21,7 C 20,6 C 60 % 1011,6 hPa 0,0 l/m 0 min 0 min 140 W/m 12,9 km/h (3 Bft) 97,83 %
27.08.2020 18:14 22,1 C 21,7 C 20,6 C 60 % 1011,5 hPa 0,0 l/m 0 min 0 min 132 W/m 6,4 km/h (2 Bft) 100,00 %
27.08.2020 18:16 22,1 C 21,7 C 20,6 C 60 % 1011,4 hPa 0,0 l/m 0 min 0 min 124 W/m 6,4 km/h (2 Bft) 100,00 %
27.08.2020 18:18 22,1 C 21,7 C 20,6 C 60 % 1011,4 hPa 0,0 l/m 0 min 0 min 114 W/m 12,9 km/h (3 Bft) 97,87 %
27.08.2020 18:20 22,1 C 21,7 C 20,6 C 60 % 1011,4 hPa 0,0 l/m 0 min 0 min 102 W/m 6,4 km/h (2 Bft) 97,87 %
27.08.2020 18:22 22,1 C 21,7 C 20,6 C 61 % 1011,4 hPa 0,0 l/m 0 min 0 min 93 W/m 6,4 km/h (2 Bft) 95,74 %
27.08.2020 18:24 22,0 C 21,7 C 20,6 C 59 % 1011,3 hPa 0,0 l/m 0 min 0 min 94 W/m 12,9 km/h (3 Bft) 97,83 %
27.08.2020 18:26 22,0 C 21,7 C 20,6 C 59 % 1011,2 hPa 0,0 l/m 0 min 0 min 98 W/m 6,4 km/h (2 Bft) 97,87 %
27.08.2020 18:28 22,0 C 21,7 C 20,6 C 59 % 1011,2 hPa 0,0 l/m 0 min 0 min 103 W/m 6,4 km/h (2 Bft) 97,87 %
27.08.2020 18:30 22,0 C 21,7 C 20,6 C 59 % 1011,1 hPa 0,0 l/m 0 min 0 min 138 W/m 6,4 km/h (2 Bft) 95,74 %
27.08.2020 18:32 22,0 C 22,2 C 20,6 C 60 % 1011,1 hPa 0,0 l/m 2 min 0 min 196 W/m 6,4 km/h (2 Bft) 95,74 %
27.08.2020 18:34 22,0 C 22,2 C 20,6 C 59 % 1011,1 hPa 0,0 l/m 2 min 0 min 178 W/m 12,9 km/h (3 Bft) 97,87 %
27.08.2020 18:36 22,0 C 22,2 C 20,6 C 59 % 1011,1 hPa 0,0 l/m 2 min 0 min 148 W/m 6,4 km/h (2 Bft) 97,83 %
27.08.2020 18:38 22,0 C 22,2 C 20,6 C 59 % 1011,1 hPa 0,0 l/m 2 min 0 min 144 W/m 6,4 km/h (2 Bft) 97,87 %
27.08.2020 18:40 22,0 C 22,2 C 20,6 C 59 % 1011,2 hPa 0,0 l/m 2 min 0 min 138 W/m 0,0 km/h (0 Bft) 95,74 %
27.08.2020 18:42 22,0 C 22,2 C 20,6 C 61 % 1011,1 hPa 0,0 l/m 0 min 0 min 123 W/m 6,4 km/h (2 Bft) 93,62 %
27.08.2020 18:44 22,0 C 22,2 C 20,0 C 60 % 1011,0 hPa 0,0 l/m 0 min 0 min 109 W/m 6,4 km/h (2 Bft) 95,74 %
27.08.2020 18:46 22,1 C 21,7 C 20,0 C 60 % 1010,9 hPa 0,0 l/m 0 min 0 min 103 W/m 3,2 km/h (1 Bft) 95,65 %
27.08.2020 18:48 22,0 C 21,7 C 20,0 C 61 % 1010,8 hPa 0,0 l/m 0 min 0 min 102 W/m 3,2 km/h (1 Bft) 95,74 %
27.08.2020 18:50 22,1 C 21,7 C 20,0 C 61 % 1010,7 hPa 0,0 l/m 0 min 0 min 101 W/m 6,4 km/h (2 Bft) 95,74 %
27.08.2020 18:52 22,1 C 21,1 C 19,4 C 61 % 1010,8 hPa 0,0 l/m 0 min 0 min 98 W/m 3,2 km/h (1 Bft) 95,74 %
27.08.2020 18:54 22,1 C 21,1 C 19,4 C 61 % 1010,8 hPa 0,0 l/m 0 min 0 min 92 W/m 3,2 km/h (1 Bft) 95,74 %
27.08.2020 18:56 22,1 C 21,1 C 19,4 C 62 % 1010,7 hPa 0,0 l/m 0 min 0 min 83 W/m 0,0 km/h (0 Bft) 93,62 %
27.08.2020 18:58 22,1 C 21,1 C 19,4 C 64 % 1010,8 hPa 0,0 l/m 0 min 0 min 77 W/m 3,2 km/h (1 Bft) 95,65 %
27.08.2020 19:00 22,1 C 21,1 C 19,4 C 64 % 1010,8 hPa 0,0 l/m 0 min 0 min 74 W/m 0,0 km/h (0 Bft) 95,74 %
27.08.2020 19:02 22,1 C 20,6 C 18,9 C 63 % 1010,7 hPa 0,0 l/m 0 min 0 min 71 W/m 0,0 km/h (0 Bft) 93,62 %
27.08.2020 19:04 22,1 C 20,6 C 18,9 C 64 % 1010,7 hPa 0,0 l/m 0 min 0 min 68 W/m 0,0 km/h (0 Bft) 95,74 %
27.08.2020 19:06 22,1 C 20,6 C 18,9 C 64 % 1010,7 hPa 0,0 l/m 0 min 0 min 59 W/m 0,0 km/h (0 Bft) 95,74 %
27.08.2020 19:08 22,1 C 20,0 C 18,9 C 64 % 1010,7 hPa 0,0 l/m 0 min 0 min 51 W/m 0,0 km/h (0 Bft) 92,45 %
27.08.2020 19:10 22,0 C 20,0 C 18,9 C 65 % 1010,6 hPa 0,0 l/m 0 min 0 min 47 W/m 0,0 km/h (0 Bft) 95,74 %
27.08.2020 19:12 21,9 C 20,0 C 18,9 C 65 % 1010,5 hPa 0,0 l/m 0 min 0 min 49 W/m 3,2 km/h (1 Bft) 93,48 %
27.08.2020 19:14 21,9 C 20,0 C 18,3 C 65 % 1010,5 hPa 0,0 l/m 0 min 0 min 47 W/m 0,0 km/h (0 Bft) 97,22 %
27.08.2020 19:16 21,9 C 19,4 C 18,3 C 65 % 1010,3 hPa 0,0 l/m 0 min 0 min 46 W/m 0,0 km/h (0 Bft) 98,28 %
27.08.2020 19:18 21,9 C 19,4 C 18,3 C 66 % 1010,2 hPa 0,0 l/m 0 min 0 min 42 W/m 0,0 km/h (0 Bft) 95,74 %
27.08.2020 19:20 21,8 C 19,4 C 18,3 C 66 % 1010,2 hPa 0,0 l/m 0 min 0 min 40 W/m 3,2 km/h (1 Bft) 97,14 %
27.08.2020 19:22 21,8 C 19,4 C 18,3 C 66 % 1010,2 hPa 0,0 l/m 0 min 0 min 39 W/m 3,2 km/h (1 Bft) 97,87 %
27.08.2020 19:24 21,8 C 19,4 C 18,3 C 66 % 1010,3 hPa 0,0 l/m 0 min 0 min 35 W/m 0,0 km/h (0 Bft) 97,87 %
27.08.2020 19:26 21,7 C 19,4 C 18,3 C 67 % 1010,3 hPa 0,0 l/m 0 min 0 min 32 W/m 3,2 km/h (1 Bft) 97,87 %
27.08.2020 19:28 21,6 C 19,4 C 18,3 C 66 % 1010,2 hPa 0,0 l/m 0 min 0 min 30 W/m 0,0 km/h (0 Bft) 95,65 %
27.08.2020 19:30 21,6 C 18,9 C 18,3 C 66 % 1010,2 hPa 0,0 l/m 0 min 0 min 28 W/m 0,0 km/h (0 Bft) 95,74 %
27.08.2020 19:32 21,6 C 18,9 C 18,3 C 66 % 1010,1 hPa 0,0 l/m 0 min 0 min 27 W/m 0,0 km/h (0 Bft) 97,87 %
27.08.2020 19:34 21,4 C 18,9 C 18,3 C 66 % 1010,0 hPa 0,0 l/m 0 min 0 min 29 W/m 0,0 km/h (0 Bft) 100,00 %
27.08.2020 19:36 21,4 C 18,9 C 18,3 C 67 % 1010,1 hPa 0,0 l/m 0 min 0 min 30 W/m 0,0 km/h (0 Bft) 100,00 %
27.08.2020 19:38 21,3 C 18,9 C 18,3 C 66 % 1010,1 hPa 0,0 l/m 0 min 0 min 30 W/m 0,0 km/h (0 Bft) 100,00 %
27.08.2020 19:40 21,3 C 18,9 C 18,3 C 66 % 1010,1 hPa 0,0 l/m 0 min 0 min 28 W/m 0,0 km/h (0 Bft) 97,87 %
27.08.2020 19:42 21,2 C 18,9 C 17,8 C 66 % 1010,0 hPa 0,0 l/m 0 min 0 min 26 W/m 0,0 km/h (0 Bft) 100,00 %
27.08.2020 19:44 21,2 C 18,9 C 17,8 C 66 % 1010,0 hPa 0,0 l/m 0 min 0 min 23 W/m 0,0 km/h (0 Bft) 100,00 %
27.08.2020 19:46 21,1 C 18,9 C 17,8 C 66 % 1009,9 hPa 0,0 l/m 0 min 0 min 19 W/m 0,0 km/h (0 Bft) 100,00 %
27.08.2020 19:48 21,1 C 18,9 C 17,8 C 66 % 1009,9 hPa 0,0 l/m 0 min 0 min 17 W/m 0,0 km/h (0 Bft) 98,28 %
27.08.2020 19:50 21,0 C 18,9 C 17,8 C 66 % 1009,9 hPa 0,0 l/m 0 min 0 min 13 W/m 0,0 km/h (0 Bft) 100,00 %
27.08.2020 19:52 20,9 C 18,9 C 17,8 C 66 % 1009,8 hPa 0,0 l/m 0 min 0 min 12 W/m 0,0 km/h (0 Bft) 100,00 %
27.08.2020 19:54 20,9 C 18,9 C 17,8 C 67 % 1009,8 hPa 0,0 l/m 0 min 0 min 11 W/m 0,0 km/h (0 Bft) 100,00 %
27.08.2020 19:56 20,8 C 18,9 C 17,8 C 67 % 1009,7 hPa 0,0 l/m 0 min 0 min 11 W/m 0,0 km/h (0 Bft) 100,00 %
27.08.2020 19:58 20,8 C 18,3 C 17,8 C 67 % 1009,7 hPa 0,0 l/m 0 min 0 min 11 W/m 0,0 km/h (0 Bft) 100,00 %
27.08.2020 20:00 20,7 C 18,3 C 17,8 C 68 % 1009,6 hPa 0,0 l/m 0 min 0 min 11 W/m 0,0 km/h (0 Bft) 100,00 %
27.08.2020 20:02 20,7 C 18,3 C 17,8 C 68 % 1009,6 hPa 0,0 l/m 0 min 0 min 11 W/m 0,0 km/h (0 Bft) 100,00 %
27.08.2020 20:04 20,6 C 18,3 C 17,8 C 67 % 1009,7 hPa 0,0 l/m 0 min 0 min 9 W/m 0,0 km/h (0 Bft) 98,31 %
27.08.2020 20:06 20,6 C 18,3 C 17,8 C 68 % 1009,7 hPa 0,0 l/m 0 min 0 min 9 W/m 0,0 km/h (0 Bft) 97,87 %
27.08.2020 20:08 20,5 C 18,3 C 17,8 C 68 % 1009,6 hPa 0,0 l/m 0 min 0 min 9 W/m 0,0 km/h (0 Bft) 97,87 %
27.08.2020 20:10 20,4 C 18,3 C 17,8 C 68 % 1009,6 hPa 0,0 l/m 0 min 0 min 7 W/m 0,0 km/h (0 Bft) 97,83 %
27.08.2020 20:12 20,4 C 18,3 C 17,2 C 68 % 1009,5 hPa 0,0 l/m 0 min 0 min 7 W/m 0,0 km/h (0 Bft) 97,50 %
27.08.2020 20:14 20,4 C 18,3 C 17,2 C 68 % 1009,5 hPa 0,0 l/m 0 min 0 min 7 W/m 0,0 km/h (0 Bft) 95,74 %
27.08.2020 20:16 20,3 C 18,3 C 17,2 C 68 % 1009,5 hPa 0,0 l/m 0 min 0 min 7 W/m 0,0 km/h (0 Bft) 97,87 %
27.08.2020 20:18 20,3 C 18,3 C 17,2 C 68 % 1009,5 hPa 0,0 l/m 0 min 0 min 7 W/m 0,0 km/h (0 Bft) 95,74 %
27.08.2020 20:20 20,2 C 18,3 C 17,2 C 68 % 1009,5 hPa 0,0 l/m 0 min 0 min 5 W/m 0,0 km/h (0 Bft) 97,83 %
27.08.2020 20:22 20,2 C 18,3 C 17,2 C 68 % 1009,4 hPa 0,0 l/m 0 min 0 min 5 W/m 0,0 km/h (0 Bft) 95,74 %
27.08.2020 20:24 20,1 C 18,3 C 17,2 C 68 % 1009,3 hPa 0,0 l/m 0 min 0 min 5 W/m 0,0 km/h (0 Bft) 97,87 %
27.08.2020 20:25 20,1 C 17,8 C 17,2 C 68 % 1009,2 hPa 0,0 l/m 0 min 0 min 5 W/m 0,0 km/h (0 Bft) 97,87 %
27.08.2020 20:28 20,1 C 17,8 C 17,2 C 69 % 1009,2 hPa 0,0 l/m 0 min 0 min 0 W/m 0,0 km/h (0 Bft) 93,62 %
27.08.2020 20:30 20,1 C 17,8 C 17,2 C 69 % 1009,1 hPa 0,0 l/m 0 min 0 min 0 W/m 0,0 km/h (0 Bft) 95,74 %
27.08.2020 20:32 20,0 C 17,8 C 17,2 C 69 % 1009,0 hPa 0,0 l/m 0 min 0 min 0 W/m 3,2 km/h (1 Bft) 95,65 %
27.08.2020 20:34 19,9 C 17,8 C 16,7 C 69 % 1009,0 hPa 0,0 l/m 0 min 0 min 0 W/m 0,0 km/h (0 Bft) 97,87 %
27.08.2020 20:36 19,9 C 17,8 C 17,2 C 69 % 1008,9 hPa 0,0 l/m 0 min 0 min 0 W/m 3,2 km/h (1 Bft) 97,87 %
27.08.2020 20:38 19,8 C 17,8 C 16,7 C 69 % 1008,9 hPa 0,0 l/m 0 min 0 min 0 W/m 3,2 km/h (1 Bft) 97,87 %
27.08.2020 20:40 19,8 C 17,8 C 16,7 C 70 % 1008,9 hPa 0,0 l/m 0 min 0 min 0 W/m 0,0 km/h (0 Bft) 98,11 %
27.08.2020 20:42 19,8 C 17,8 C 16,7 C 70 % 1008,9 hPa 0,0 l/m 0 min 0 min 0 W/m 3,2 km/h (1 Bft) 97,87 %
27.08.2020 20:44 19,7 C 17,2 C 16,7 C 70 % 1008,8 hPa 0,0 l/m 0 min 0 min 0 W/m 0,0 km/h (0 Bft) 97,87 %
27.08.2020 20:46 19,7 C 17,2 C 16,7 C 70 % 1008,7 hPa 0,0 l/m 0 min 0 min 0 W/m 0,0 km/h (0 Bft) 95,65 %
27.08.2020 20:48 19,6 C 17,2 C 16,7 C 70 % 1008,6 hPa 0,0 l/m 0 min 0 min 0 W/m 0,0 km/h (0 Bft) 97,87 %
27.08.2020 20:50 19,6 C 17,2 C 16,7 C 70 % 1008,6 hPa 0,0 l/m 0 min 0 min 0 W/m 0,0 km/h (0 Bft) 97,87 %
27.08.2020 20:52 19,6 C 17,2 C 16,7 C 70 % 1008,6 hPa 0,0 l/m 0 min 0 min 0 W/m 0,0 km/h (0 Bft) 97,87 %
27.08.2020 20:54 19,5 C 17,2 C 16,7 C 71 % 1008,5 hPa 0,0 l/m 0 min 0 min 0 W/m 3,2 km/h (1 Bft) 100,00 %
27.08.2020 20:56 19,4 C 17,2 C 16,7 C 70 % 1008,5 hPa 0,0 l/m 0 min 0 min 0 W/m 3,2 km/h (1 Bft) 100,00 %
27.08.2020 20:58 19,4 C 17,2 C 16,7 C 71 % 1008,5 hPa 0,0 l/m 0 min 0 min 0 W/m 3,2 km/h (1 Bft) 100,00 %
27.08.2020 21:00 19,3 C 17,2 C 16,7 C 71 % 1008,4 hPa 0,0 l/m 0 min 0 min 0 W/m 0,0 km/h (0 Bft) 100,00 %
27.08.2020 21:02 19,3 C 17,2 C 16,7 C 71 % 1008,4 hPa 0,0 l/m 0 min 0 min 0 W/m 0,0 km/h (0 Bft) 97,87 %
27.08.2020 21:04 19,3 C 17,2 C 16,7 C 71 % 1008,4 hPa 0,0 l/m 0 min 0 min 0 W/m 0,0 km/h (0 Bft) 100,00 %
27.08.2020 21:06 19,2 C 17,2 C 16,7 C 71 % 1008,4 hPa 0,0 l/m 0 min 0 min 0 W/m 0,0 km/h (0 Bft) 100,00 %
27.08.2020 21:08 19,2 C 17,2 C 16,7 C 71 % 1008,4 hPa 0,0 l/m 0 min 0 min 0 W/m 0,0 km/h (0 Bft) 100,00 %
27.08.2020 21:10 19,1 C 17,2 C 16,7 C 71 % 1008,3 hPa 0,0 l/m 0 min 0 min 0 W/m 0,0 km/h (0 Bft) 95,92 %
27.08.2020 21:12 19,1 C 17,2 C 16,7 C 71 % 1008,4 hPa 0,0 l/m 0 min 0 min 0 W/m 0,0 km/h (0 Bft) 100,00 %
27.08.2020 21:14 19,1 C 17,2 C 16,7 C 72 % 1008,4 hPa 0,0 l/m 0 min 0 min 0 W/m 0,0 km/h (0 Bft) 100,00 %
27.08.2020 21:16 19,0 C 17,2 C 16,7 C 72 % 1008,4 hPa 0,0 l/m 0 min 0 min 0 W/m 0,0 km/h (0 Bft) 100,00 %
27.08.2020 21:18 19,0 C 17,2 C 16,7 C 72 % 1008,3 hPa 0,0 l/m 0 min 0 min 0 W/m 0,0 km/h (0 Bft) 97,83 %
27.08.2020 21:20 18,9 C 17,2 C 16,7 C 72 % 1008,3 hPa 0,0 l/m 0 min 0 min 0 W/m 3,2 km/h (1 Bft) 97,87 %
27.08.2020 21:22 18,9 C 17,2 C 16,7 C 72 % 1008,2 hPa 0,0 l/m 0 min 0 min 0 W/m 0,0 km/h (0 Bft) 100,00 %
27.08.2020 21:24 18,9 C 17,2 C 16,7 C 72 % 1008,1 hPa 0,0 l/m 0 min 0 min 0 W/m 0,0 km/h (0 Bft) 100,00 %
27.08.2020 21:26 18,8 C 17,2 C 16,7 C 72 % 1008,1 hPa 0,0 l/m 0 min 0 min 0 W/m 6,4 km/h (2 Bft) 95,74 %
27.08.2020 21:28 18,8 C 17,2 C 16,7 C 72 % 1008,2 hPa 0,0 l/m 0 min 0 min 0 W/m 3,2 km/h (1 Bft) 97,87 %
27.08.2020 21:30 18,8 C 17,2 C 16,7 C 72 % 1008,2 hPa 0,0 l/m 0 min 0 min 0 W/m 0,0 km/h (0 Bft) 97,83 %
27.08.2020 21:32 18,8 C 17,2 C 16,7 C 73 % 1008,3 hPa 0,0 l/m 0 min 0 min 0 W/m 0,0 km/h (0 Bft) 95,74 %
27.08.2020 21:34 18,7 C 17,2 C 16,7 C 73 % 1008,3 hPa 0,0 l/m 0 min 0 min 0 W/m 0,0 km/h (0 Bft) 97,87 %
27.08.2020 21:36 18,7 C 17,2 C 16,7 C 73 % 1008,2 hPa 0,0 l/m 0 min 0 min 0 W/m 0,0 km/h (0 Bft) 97,87 %
27.08.2020 21:38 18,7 C 17,2 C 16,7 C 73 % 1008,1 hPa 0,0 l/m 0 min 0 min 0 W/m 0,0 km/h (0 Bft) 97,87 %
27.08.2020 21:40 18,7 C 17,2 C 16,7 C 73 % 1008,1 hPa 0,0 l/m 0 min 0 min 0 W/m 0,0 km/h (0 Bft) 98,11 %
27.08.2020 21:42 18,7 C 17,2 C 16,7 C 73 % 1008,2 hPa 0,0 l/m 0 min 0 min 0 W/m 0,0 km/h (0 Bft) 97,87 %
27.08.2020 21:44 18,6 C 17,2 C 16,7 C 73 % 1008,3 hPa 0,0 l/m 0 min 0 min 0 W/m 0,0 km/h (0 Bft) 97,83 %
27.08.2020 21:46 18,6 C 17,2 C 16,7 C 73 % 1008,3 hPa 0,0 l/m 0 min 0 min 0 W/m 0,0 km/h (0 Bft) 93,62 %
27.08.2020 21:48 18,6 C 17,2 C 16,7 C 73 % 1008,4 hPa 0,0 l/m 0 min 0 min 0 W/m 0,0 km/h (0 Bft) 94,74 %
27.08.2020 21:50 18,6 C 17,2 C 16,7 C 73 % 1008,4 hPa 0,0 l/m 0 min 0 min 0 W/m 0,0 km/h (0 Bft) 95,74 %
27.08.2020 21:52 18,6 C 17,2 C 16,7 C 74 % 1008,3 hPa 0,0 l/m 0 min 0 min 0 W/m 0,0 km/h (0 Bft) 95,74 %
27.08.2020 21:54 18,6 C 17,2 C 16,7 C 74 % 1008,3 hPa 0,0 l/m 0 min 0 min 0 W/m 0,0 km/h (0 Bft) 95,74 %
27.08.2020 21:56 18,6 C 17,2 C 16,7 C 74 % 1008,2 hPa 0,0 l/m 0 min 0 min 0 W/m 3,2 km/h (1 Bft) 97,87 %
27.08.2020 21:58 18,5 C 17,2 C 16,7 C 74 % 1008,2 hPa 0,0 l/m 0 min 0 min 0 W/m 3,2 km/h (1 Bft) 93,48 %
27.08.2020 22:00 18,5 C 17,2 C 16,7 C 74 % 1008,2 hPa 0,0 l/m 0 min 0 min 0 W/m 3,2 km/h (1 Bft) 93,62 %
27.08.2020 22:02 18,5 C 17,2 C 16,7 C 74 % 1008,2 hPa 0,0 l/m 0 min 0 min 0 W/m 0,0 km/h (0 Bft) 95,74 %
27.08.2020 22:04 18,4 C 17,2 C 16,7 C 74 % 1008,2 hPa 0,0 l/m 0 min 0 min 0 W/m 0,0 km/h (0 Bft) 95,74 %
27.08.2020 22:06 18,4 C 17,2 C 16,7 C 74 % 1008,2 hPa 0,0 l/m 0 min 0 min 0 W/m 0,0 km/h (0 Bft) 95,74 %
27.08.2020 22:08 18,4 C 16,7 C 16,7 C 74 % 1008,2 hPa 0,0 l/m 0 min 2 min 0 W/m 0,0 km/h (0 Bft) 95,92 %
27.08.2020 22:10 18,4 C 16,1 C 16,1 C 74 % 1008,1 hPa 0,0 l/m 0 min 2 min 0 W/m 0,0 km/h (0 Bft) 95,74 %
27.08.2020 22:12 18,4 C 16,1 C 16,1 C 75 % 1008,0 hPa 0,0 l/m 0 min 2 min 0 W/m 0,0 km/h (0 Bft) 93,62 %
27.08.2020 22:14 18,4 C 16,1 C 16,1 C 75 % 1007,9 hPa 0,0 l/m 0 min 0 min 0 W/m 0,0 km/h (0 Bft) 96,30 %
27.08.2020 22:16 18,4 C 16,1 C 16,1 C 76 % 1007,9 hPa 0,0 l/m 0 min 0 min 0 W/m 3,2 km/h (1 Bft) 97,87 %
27.08.2020 22:18 18,4 C 16,1 C 16,1 C 76 % 1008,0 hPa 0,0 l/m 0 min 0 min 0 W/m 3,2 km/h (1 Bft) 97,83 %
27.08.2020 22:20 18,3 C 16,1 C 16,1 C 76 % 1007,9 hPa 0,0 l/m 0 min 0 min 0 W/m 3,2 km/h (1 Bft) 97,87 %
27.08.2020 22:22 18,3 C 16,1 C 16,1 C 76 % 1007,9 hPa 0,0 l/m 0 min 0 min 0 W/m 3,2 km/h (1 Bft) 97,87 %
27.08.2020 22:24 18,3 C 16,7 C 16,1 C 76 % 1007,9 hPa 0,0 l/m 0 min 0 min 0 W/m 3,2 km/h (1 Bft) 97,87 %
27.08.2020 22:26 18,3 C 16,7 C 16,1 C 76 % 1007,9 hPa 0,0 l/m 0 min 0 min 0 W/m 0,0 km/h (0 Bft) 97,87 %
27.08.2020 22:29 18,3 C 16,7 C 16,1 C 77 % 1008,2 hPa 0,0 l/m 0 min 0 min 0 W/m 0,0 km/h (0 Bft) 95,71 %
27.08.2020 22:30 18,3 C 16,7 C 16,1 C 77 % 1008,2 hPa 0,0 l/m 0 min 1 min 0 W/m 3,2 km/h (1 Bft) 95,65 %
27.08.2020 22:32 18,2 C 16,7 C 16,1 C 76 % 1008,3 hPa 0,0 l/m 0 min 2 min 0 W/m 6,4 km/h (2 Bft) 97,87 %
27.08.2020 22:34 18,2 C 15,6 C 16,1 C 77 % 1008,4 hPa 0,0 l/m 0 min 2 min 0 W/m 3,2 km/h (1 Bft) 97,87 %
27.08.2020 22:36 18,2 C 15,0 C 15,6 C 77 % 1008,4 hPa 0,0 l/m 0 min 2 min 0 W/m 0,0 km/h (0 Bft) 97,87 %
27.08.2020 22:38 18,2 C 15,0 C 15,6 C 77 % 1008,3 hPa 0,0 l/m 0 min 2 min 0 W/m 0,0 km/h (0 Bft) 97,87 %
27.08.2020 22:40 18,2 C 14,4 C 15,0 C 78 % 1008,2 hPa 0,0 l/m 0 min 2 min 0 W/m 0,0 km/h (0 Bft) 97,87 %
27.08.2020 22:42 18,2 C 14,4 C 15,0 C 78 % 1008,2 hPa 0,2 l/m 0 min 2 min 0 W/m 0,0 km/h (0 Bft) 97,83 %
27.08.2020 22:44 18,2 C 14,4 C 15,0 C 80 % 1008,2 hPa 0,0 l/m 0 min 2 min 0 W/m 0,0 km/h (0 Bft) 97,87 %
27.08.2020 22:46 18,2 C 14,4 C 15,0 C 80 % 1008,2 hPa 0,0 l/m 0 min 2 min 0 W/m 3,2 km/h (1 Bft) 93,62 %
27.08.2020 22:48 18,2 C 14,4 C 15,0 C 81 % 1008,3 hPa 0,0 l/m 0 min 2 min 0 W/m 6,4 km/h (2 Bft) 100,00 %
27.08.2020 22:50 18,2 C 14,4 C 15,0 C 81 % 1008,3 hPa 0,0 l/m 0 min 0 min 0 W/m 3,2 km/h (1 Bft) 97,87 %
27.08.2020 22:52 18,2 C 14,4 C 15,0 C 82 % 1008,2 hPa 0,0 l/m 0 min 0 min 0 W/m 0,0 km/h (0 Bft) 97,87 %
27.08.2020 22:54 18,1 C 14,4 C 15,0 C 82 % 1008,2 hPa 0,0 l/m 0 min 2 min 0 W/m 0,0 km/h (0 Bft) 100,00 %
27.08.2020 22:56 18,1 C 14,4 C 14,4 C 82 % 1008,3 hPa 0,0 l/m 0 min 2 min 0 W/m 3,2 km/h (1 Bft) 93,62 %
27.08.2020 22:58 18,1 C 14,4 C 14,4 C 82 % 1008,3 hPa 0,0 l/m 0 min 2 min 0 W/m 0,0 km/h (0 Bft) 95,74 %
27.08.2020 23:00 18,1 C 14,4 C 14,4 C 82 % 1008,2 hPa 0,0 l/m 0 min 2 min 0 W/m 0,0 km/h (0 Bft) 95,74 %
27.08.2020 23:02 18,0 C 14,4 C 14,4 C 83 % 1008,1 hPa 0,0 l/m 0 min 2 min 0 W/m 0,0 km/h (0 Bft) 95,74 %
27.08.2020 23:04 18,0 C 14,4 C 14,4 C 83 % 1008,0 hPa 0,0 l/m 0 min 2 min 0 W/m 0,0 km/h (0 Bft) 95,65 %
27.08.2020 23:06 17,9 C 14,4 C 14,4 C 83 % 1007,8 hPa 0,0 l/m 0 min 2 min 0 W/m 0,0 km/h (0 Bft) 97,87 %
27.08.2020 23:08 17,9 C 14,4 C 14,4 C 84 % 1007,7 hPa 0,0 l/m 0 min 0 min 0 W/m 0,0 km/h (0 Bft) 97,87 %
27.08.2020 23:10 17,9 C 14,4 C 14,4 C 84 % 1007,6 hPa 0,0 l/m 0 min 0 min 0 W/m 0,0 km/h (0 Bft) 97,87 %
27.08.2020 23:12 17,8 C 14,4 C 14,4 C 85 % 1007,6 hPa 0,0 l/m 0 min 0 min 0 W/m 0,0 km/h (0 Bft) 95,74 %
27.08.2020 23:14 17,8 C 14,4 C 14,4 C 85 % 1007,5 hPa 0,0 l/m 0 min 0 min 0 W/m 0,0 km/h (0 Bft) 95,74 %
27.08.2020 23:16 17,7 C 14,4 C 14,4 C 85 % 1007,3 hPa 0,0 l/m 0 min 0 min 0 W/m 0,0 km/h (0 Bft) 97,44 %
27.08.2020 23:18 17,7 C 14,4 C 14,4 C 85 % 1007,2 hPa 0,0 l/m 0 min 0 min 0 W/m 0,0 km/h (0 Bft) 97,87 %
27.08.2020 23:20 17,7 C 14,4 C 14,4 C 86 % 1007,2 hPa 0,0 l/m 0 min 0 min 0 W/m 0,0 km/h (0 Bft) 97,87 %
27.08.2020 23:22 17,6 C 14,4 C 14,4 C 86 % 1007,3 hPa 0,0 l/m 0 min 0 min 0 W/m 0,0 km/h (0 Bft) 97,87 %
27.08.2020 23:24 17,6 C 14,4 C 14,4 C 86 % 1007,2 hPa 0,0 l/m 0 min 2 min 0 W/m 0,0 km/h (0 Bft) 95,74 %
27.08.2020 23:26 17,6 C 14,4 C 14,4 C 86 % 1007,1 hPa 0,0 l/m 0 min 2 min 0 W/m 3,2 km/h (1 Bft) 97,83 %
27.08.2020 23:28 17,5 C 14,4 C 14,4 C 86 % 1007,1 hPa 0,2 l/m 0 min 2 min 0 W/m 12,9 km/h (3 Bft) 97,87 %
27.08.2020 23:30 17,4 C 13,9 C 14,4 C 86 % 1007,2 hPa 0,0 l/m 0 min 2 min 0 W/m 0,0 km/h (0 Bft) 97,87 %
27.08.2020 23:32 17,4 C 14,4 C 14,4 C 86 % 1007,1 hPa 0,0 l/m 0 min 2 min 0 W/m 3,2 km/h (1 Bft) 97,87 %
27.08.2020 23:34 17,3 C 14,4 C 14,4 C 86 % 1007,1 hPa 0,0 l/m 0 min 2 min 0 W/m 0,0 km/h (0 Bft) 97,87 %
27.08.2020 23:36 17,3 C 14,4 C 14,4 C 86 % 1007,0 hPa 0,0 l/m 0 min 2 min 0 W/m 3,2 km/h (1 Bft) 95,74 %
27.08.2020 23:38 17,3 C 14,4 C 14,4 C 87 % 1006,9 hPa 0,0 l/m 0 min 2 min 0 W/m 0,0 km/h (0 Bft) 97,83 %
27.08.2020 23:40 17,2 C 14,4 C 14,4 C 87 % 1006,9 hPa 0,0 l/m 0 min 2 min 0 W/m 0,0 km/h (0 Bft) 95,74 %
27.08.2020 23:42 17,2 C 14,4 C 14,4 C 87 % 1007,0 hPa 0,0 l/m 0 min 0 min 0 W/m 0,0 km/h (0 Bft) 95,74 %
27.08.2020 23:44 17,2 C 14,4 C 14,4 C 87 % 1006,9 hPa 0,0 l/m 0 min 0 min 0 W/m 0,0 km/h (0 Bft) 95,74 %
27.08.2020 23:46 17,2 C 14,4 C 14,4 C 87 % 1007,0 hPa 0,0 l/m 0 min 0 min 0 W/m 0,0 km/h (0 Bft) 97,87 %
27.08.2020 23:48 17,1 C 14,4 C 14,4 C 87 % 1007,0 hPa 0,0 l/m 0 min 0 min 0 W/m 0,0 km/h (0 Bft) 100,00 %
27.08.2020 23:50 17,1 C 14,4 C 14,4 C 87 % 1007,0 hPa 0,0 l/m 0 min 2 min 0 W/m 0,0 km/h (0 Bft) 97,83 %
27.08.2020 23:52 17,1 C 14,4 C 14,4 C 87 % 1007,0 hPa 0,2 l/m 0 min 2 min 0 W/m 0,0 km/h (0 Bft) 97,87 %
27.08.2020 23:54 17,1 C 14,4 C 14,4 C 87 % 1007,0 hPa 0,0 l/m 0 min 2 min 0 W/m 0,0 km/h (0 Bft) 97,87 %
27.08.2020 23:56 17,0 C 14,4 C 14,4 C 87 % 1006,9 hPa 0,0 l/m 0 min 2 min 0 W/m 0,0 km/h (0 Bft) 100,00 %
27.08.2020 23:58 17,0 C 14,4 C 14,4 C 88 % 1006,9 hPa 0,0 l/m 0 min 0 min 0 W/m 0,0 km/h (0 Bft) 97,87 %
_ Min-Zeit 02:58 02:20 02:10 16:52 23:38 - - - - 00:00 00:02
Minimum _ 13,5 C 11,7 C 11,7 C 57 % 1006,9 hPa - - - - 0,0 km/h (0 Bft) 12,50 %
_ Max-Zeit 16:08 13:42 17:14 08:08 02:20 22:42 17:02 22:08 13:04 15:06 00:00
Maximum _ 23,1 C 28,9 C 23,3 C 98 % 1018,3 hPa 0,2 l/m 4 min 2 min 1005 W/m 25,7 km/h
O-SO (4 Bft)
100,00 %
Durchschnitt _ 17,5 C 17,5 C 16,1 C 82 % 1014,9 hPa #0,6 l/m #3:42 h #1:05 h 261 W/m 5,0 km/h (1 Bft) 97,37 %
© 2020 W. Hausmann